Observation data for Tahoka on 08/14/2020      Previous  Date  Next       Current Mesonet Observations  Soil Data  Daily Summary Page  Observations in Plain Language
KTAS 140500Z 20010KT 30/10 A2998 RMK A01 T03040100  RH  028%=      5-min Rain = 0
KTAS 140501Z 20010KT 30/10 A2998 RMK A01 T03030100  RH  028%=      5-min Rain = 0
KTAS 140502Z 20010KT 30/10 A2998 RMK A01 T03030100  RH  028%=      5-min Rain = 0
KTAS 140503Z 20009KT 30/10 A2998 RMK A01 T03040100  RH  028%=      5-min Rain = 0
KTAS 140504Z 20010KT 30/10 A2998 RMK A01 T03030100  RH  028%=      5-min Rain = 0
KTAS 140505Z 20011KT 30/10 A2998 RMK A01 T03030100  RH  028%=      5-min Rain = 0
KTAS 140506Z 19008KT 30/10 A2998 RMK A01 T03030100  RH  028%=      5-min Rain = 0
KTAS 140507Z 20010KT 30/10 A2998 RMK A01 T03030100  RH  028%=      5-min Rain = 0
KTAS 140508Z 20011KT 30/10 A2998 RMK A01 T03020100  RH  028%=      5-min Rain = 0
KTAS 140509Z 20009KT 30/10 A2998 RMK A01 T03020100  RH  028%=      5-min Rain = 0
KTAS 140510Z 20009KT 30/10 A2998 RMK A01 T03020100  RH  029%=      5-min Rain = 0
KTAS 140511Z 20011KT 30/10 A2998 RMK A01 T03010100  RH  029%=      5-min Rain = 0
KTAS 140512Z 20012KT 30/10 A2998 RMK A01 T03030100  RH  028%=      5-min Rain = 0
KTAS 140513Z 20010KT 30/10 A2998 RMK A01 T03030100  RH  028%=      5-min Rain = 0
KTAS 140514Z 20011KT 30/10 A2998 RMK A01 T03030100  RH  028%=      5-min Rain = 0
KTAS 140515Z 19011KT 30/10 A2998 RMK A01 T03020100  RH  028%=      5-min Rain = 0
KTAS 140516Z 20010KT 30/10 A2998 RMK A01 T03020100  RH  029%=      5-min Rain = 0
KTAS 140517Z 19012KT 30/10 A2998 RMK A01 T03010100  RH  029%=      5-min Rain = 0
KTAS 140518Z 19010KT 30/10 A2998 RMK A01 T03010100  RH  029%=      5-min Rain = 0
KTAS 140519Z 20010KT 30/10 A2998 RMK A01 T03010100  RH  029%=      5-min Rain = 0
KTAS 140520Z 20010KT 30/10 A2998 RMK A01 T03010100  RH  029%=      5-min Rain = 0
KTAS 140521Z 20010KT 30/10 A2998 RMK A01 T03000100  RH  029%=      5-min Rain = 0
KTAS 140522Z 20010KT 30/10 A2998 RMK A01 T03000100  RH  029%=      5-min Rain = 0
KTAS 140523Z 20010KT 30/10 A2998 RMK A01 T03000100  RH  029%=      5-min Rain = 0
KTAS 140524Z 20010KT 30/10 A2998 RMK A01 T03000100  RH  029%=      5-min Rain = 0
KTAS 140525Z 20009KT 30/10 A2998 RMK A01 T02990100  RH  029%=      5-min Rain = 0
KTAS 140526Z 20010KT 30/10 A2998 RMK A01 T02980100  RH  029%=      5-min Rain = 0
KTAS 140527Z 20010KT 30/10 A2998 RMK A01 T02980100  RH  029%=      5-min Rain = 0
KTAS 140528Z 19010KT 30/10 A2998 RMK A01 T02980100  RH  029%=      5-min Rain = 0
KTAS 140529Z 20010KT 30/10 A2998 RMK A01 T02980100  RH  029%=      5-min Rain = 0
KTAS 140530Z 20010KT 30/10 A2998 RMK A01 T02970100  RH  029%=      5-min Rain = 0
KTAS 140531Z 20009KT 30/10 A2998 RMK A01 T02970100  RH  029%=      5-min Rain = 0
KTAS 140532Z 20009KT 30/10 A2999 RMK A01 T02960100  RH  030%=      5-min Rain = 0
KTAS 140533Z 20010KT 30/10 A2999 RMK A01 T02960100  RH  030%=      5-min Rain = 0
KTAS 140534Z 19009KT 30/10 A2999 RMK A01 T02960100  RH  030%=      5-min Rain = 0
KTAS 140535Z 20009KT 30/10 A2999 RMK A01 T02950100  RH  030%=      5-min Rain = 0
KTAS 140536Z 19010KT 30/10 A2999 RMK A01 T02950100  RH  030%=      5-min Rain = 0
KTAS 140537Z 19009KT 30/10 A2999 RMK A01 T02950100  RH  030%=      5-min Rain = 0
KTAS 140538Z 19008KT 30/10 A2999 RMK A01 T02950100  RH  030%=      5-min Rain = 0
KTAS 140539Z 19009KT 29/10 A2999 RMK A01 T02940100  RH  030%=      5-min Rain = 0
KTAS 140540Z 20009KT 29/10 A2999 RMK A01 T02930100  RH  030%=      5-min Rain = 0
KTAS 140541Z 19009KT 29/10 A2999 RMK A01 T02920100  RH  030%=      5-min Rain = 0
KTAS 140542Z 20009KT 29/10 A2999 RMK A01 T02920100  RH  030%=      5-min Rain = 0
KTAS 140543Z 19009KT 29/10 A2999 RMK A01 T02920100  RH  030%=      5-min Rain = 0
KTAS 140544Z 19009KT 29/10 A2999 RMK A01 T02910100  RH  030%=      5-min Rain = 0
KTAS 140545Z 19009KT 29/10 A2999 RMK A01 T02910099  RH  030%=      5-min Rain = 0
KTAS 140546Z 19009KT 29/10 A2999 RMK A01 T02900099  RH  030%=      5-min Rain = 0
KTAS 140547Z 19008KT 29/10 A2999 RMK A01 T02890099  RH  031%=      5-min Rain = 0
KTAS 140548Z 19009KT 29/10 A2999 RMK A01 T02880099  RH  031%=      5-min Rain = 0
KTAS 140549Z 19010KT 29/10 A2999 RMK A01 T02880099  RH  031%=      5-min Rain = 0
KTAS 140550Z 19009KT 29/10 A2999 RMK A01 T02880099  RH  031%=      5-min Rain = 0
KTAS 140551Z 19009KT 29/10 A2999 RMK A01 T02880099  RH  031%=      5-min Rain = 0
KTAS 140552Z 19008KT 29/10 A2999 RMK A01 T02870099  RH  031%=      5-min Rain = 0
KTAS 140553Z 19010KT 29/10 A2999 RMK A01 T02860099  RH  031%=      5-min Rain = 0
KTAS 140554Z 20009KT 29/10 A2999 RMK A01 T02860099  RH  031%=      5-min Rain = 0
KTAS 140555Z 20009KT 29/10 A2999 RMK A01 T02860099  RH  031%=      5-min Rain = 0
KTAS 140556Z 20010KT 29/10 A2999 RMK A01 T02860099  RH  031%=      5-min Rain = 0
KTAS 140557Z 20009KT 29/10 A2998 RMK A01 T02860099  RH  031%=      5-min Rain = 0
KTAS 140558Z 20008KT 29/10 A2999 RMK A01 T02860099  RH  031%=      5-min Rain = 0
KTAS 140559Z 21009KT 29/10 A2999 RMK A01 T02850099  RH  031%=      5-min Rain = 0
KTAS 140600Z 21008KT 29/10 A2998 RMK A01 T02850099  RH  031%=      5-min Rain = 0
KTAS 140601Z 21009KT 29/10 A2999 RMK A01 T02860100  RH  031%=      5-min Rain = 0
KTAS 140602Z 21008KT 29/10 A2999 RMK A01 T02860100  RH  031%=      5-min Rain = 0
KTAS 140603Z 21009KT 29/10 A2999 RMK A01 T02850100  RH  032%=      5-min Rain = 0
KTAS 140604Z 21008KT 28/10 A2998 RMK A01 T02840100  RH  032%=      5-min Rain = 0
KTAS 140605Z 21009KT 28/10 A2998 RMK A01 T02840101  RH  032%=      5-min Rain = 0
KTAS 140606Z 21009KT 28/10 A2998 RMK A01 T02820101  RH  032%=      5-min Rain = 0
KTAS 140607Z 21008KT 28/10 A2998 RMK A01 T02820101  RH  032%=      5-min Rain = 0
KTAS 140608Z 21008KT 28/10 A2998 RMK A01 T02810102  RH  033%=      5-min Rain = 0
KTAS 140609Z 21008KT 28/10 A2998 RMK A01 T02800102  RH  033%=      5-min Rain = 0
KTAS 140610Z 21008KT 28/10 A2998 RMK A01 T02790103  RH  033%=      5-min Rain = 0
KTAS 140611Z 21008KT 28/10 A2998 RMK A01 T02770103  RH  034%=      5-min Rain = 0
KTAS 140612Z 21008KT 28/10 A2998 RMK A01 T02760104  RH  034%=      5-min Rain = 0
KTAS 140613Z 21008KT 27/10 A2998 RMK A01 T02740104  RH  034%=      5-min Rain = 0
KTAS 140614Z 21008KT 27/10 A2999 RMK A01 T02730104  RH  035%=      5-min Rain = 0
KTAS 140615Z 21008KT 27/10 A2999 RMK A01 T02720104  RH  035%=      5-min Rain = 0
KTAS 140616Z 21008KT 27/11 A2999 RMK A01 T02710105  RH  035%=      5-min Rain = 0
KTAS 140617Z 21008KT 27/11 A2999 RMK A01 T02700105  RH  035%=      5-min Rain = 0
KTAS 140618Z 21008KT 27/11 A2998 RMK A01 T02700105  RH  036%=      5-min Rain = 0
KTAS 140619Z 21008KT 27/11 A2998 RMK A01 T02690105  RH  036%=      5-min Rain = 0
KTAS 140620Z 21008KT 27/10 A2998 RMK A01 T02690104  RH  036%=      5-min Rain = 0
KTAS 140621Z 21008KT 27/10 A2998 RMK A01 T02680104  RH  036%=      5-min Rain = 0
KTAS 140622Z 21008KT 27/10 A2998 RMK A01 T02680104  RH  036%=      5-min Rain = 0
KTAS 140623Z 21008KT 27/10 A2998 RMK A01 T02680104  RH  036%=      5-min Rain = 0
KTAS 140624Z 21008KT 27/10 A2998 RMK A01 T02680104  RH  036%=      5-min Rain = 0
KTAS 140625Z 21008KT 27/10 A2998 RMK A01 T02680104  RH  036%=      5-min Rain = 0
KTAS 140626Z 21008KT 27/10 A2998 RMK A01 T02680104  RH  036%=      5-min Rain = 0
KTAS 140627Z 21007KT 27/10 A2998 RMK A01 T02680104  RH  036%=      5-min Rain = 0
KTAS 140628Z 21008KT 27/10 A2998 RMK A01 T02670104  RH  036%=      5-min Rain = 0
KTAS 140629Z 21007KT 27/10 A2998 RMK A01 T02670103  RH  036%=      5-min Rain = 0
KTAS 140630Z 20008KT 27/10 A2998 RMK A01 T02670103  RH  036%=      5-min Rain = 0
KTAS 140631Z 20007KT 27/10 A2998 RMK A01 T02670103  RH  036%=      5-min Rain = 0
KTAS 140632Z 20007KT 27/10 A2998 RMK A01 T02680103  RH  036%=      5-min Rain = 0
KTAS 140633Z 20007KT 27/10 A2998 RMK A01 T02680103  RH  036%=      5-min Rain = 0
KTAS 140634Z 20007KT 27/10 A2998 RMK A01 T02680103  RH  036%=      5-min Rain = 0
KTAS 140635Z 20008KT 27/10 A2998 RMK A01 T02680103  RH  036%=      5-min Rain = 0
KTAS 140636Z 20008KT 27/10 A2999 RMK A01 T02680103  RH  036%=      5-min Rain = 0
KTAS 140637Z 20007KT 27/10 A2999 RMK A01 T02680104  RH  036%=      5-min Rain = 0
KTAS 140638Z 20007KT 27/10 A2999 RMK A01 T02680104  RH  036%=      5-min Rain = 0
KTAS 140639Z 20008KT 27/10 A2999 RMK A01 T02670104  RH  036%=      5-min Rain = 0
KTAS 140640Z 20008KT 27/10 A2999 RMK A01 T02670103  RH  036%=      5-min Rain = 0
KTAS 140641Z 20008KT 27/10 A2999 RMK A01 T02660103  RH  036%=      5-min Rain = 0
KTAS 140642Z 20007KT 27/10 A2999 RMK A01 T02670103  RH  036%=      5-min Rain = 0
KTAS 140643Z 20007KT 27/10 A2999 RMK A01 T02660103  RH  036%=      5-min Rain = 0
KTAS 140644Z 20008KT 27/10 A2999 RMK A01 T02660103  RH  036%=      5-min Rain = 0
KTAS 140645Z 20008KT 27/10 A2999 RMK A01 T02660103  RH  036%=      5-min Rain = 0
KTAS 140646Z 20008KT 27/10 A2999 RMK A01 T02660103  RH  036%=      5-min Rain = 0
KTAS 140647Z 20009KT 27/10 A2999 RMK A01 T02670103  RH  036%=      5-min Rain = 0
KTAS 140648Z 20008KT 27/10 A2999 RMK A01 T02680102  RH  035%=      5-min Rain = 0
KTAS 140649Z 20008KT 27/10 A2999 RMK A01 T02690102  RH  035%=      5-min Rain = 0
KTAS 140650Z 20008KT 27/10 A2999 RMK A01 T02690102  RH  035%=      5-min Rain = 0
KTAS 140651Z 20008KT 27/10 A2999 RMK A01 T02700102  RH  035%=      5-min Rain = 0
KTAS 140652Z 20008KT 27/10 A2999 RMK A01 T02710102  RH  035%=      5-min Rain = 0
KTAS 140653Z 21008KT 27/10 A2999 RMK A01 T02710102  RH  035%=      5-min Rain = 0
KTAS 140654Z 20009KT 27/10 A2999 RMK A01 T02720102  RH  035%=      5-min Rain = 0
KTAS 140655Z 21008KT 27/10 A2999 RMK A01 T02720102  RH  035%=      5-min Rain = 0
KTAS 140656Z 21009KT 27/10 A2999 RMK A01 T02720102  RH  035%=      5-min Rain = 0
KTAS 140657Z 21009KT 27/10 A2999 RMK A01 T02720102  RH  034%=      5-min Rain = 0
KTAS 140658Z 21009KT 27/10 A2999 RMK A01 T02720102  RH  034%=      5-min Rain = 0
KTAS 140659Z 21009KT 27/10 A2999 RMK A01 T02730103  RH  034%=      5-min Rain = 0
KTAS 140700Z 21009KT 27/10 A2999 RMK A01 T02730103  RH  035%=      5-min Rain = 0
KTAS 140701Z 20009KT 27/10 A2999 RMK A01 T02720103  RH  035%=      5-min Rain = 0
KTAS 140702Z 20009KT 27/10 A2999 RMK A01 T02720103  RH  035%=      5-min Rain = 0
KTAS 140703Z 20008KT 27/10 A2999 RMK A01 T02720103  RH  035%=      5-min Rain = 0
KTAS 140704Z 20009KT 27/10 A2999 RMK A01 T02710103  RH  035%=      5-min Rain = 0
KTAS 140705Z 20008KT 27/10 A2999 RMK A01 T02710103  RH  035%=      5-min Rain = 0
KTAS 140706Z 20008KT 27/10 A2999 RMK A01 T02710104  RH  035%=      5-min Rain = 0
KTAS 140707Z 20010KT 27/10 A2999 RMK A01 T02710104  RH  035%=      5-min Rain = 0
KTAS 140708Z 20009KT 27/10 A2999 RMK A01 T02710104  RH  035%=      5-min Rain = 0
KTAS 140709Z 20009KT 27/10 A2999 RMK A01 T02720104  RH  035%=      5-min Rain = 0
KTAS 140710Z 20009KT 27/10 A2999 RMK A01 T02720104  RH  035%=      5-min Rain = 0
KTAS 140711Z 20009KT 27/10 A2999 RMK A01 T02720104  RH  035%=      5-min Rain = 0
KTAS 140712Z 20009KT 27/11 A2999 RMK A01 T02730105  RH  035%=      5-min Rain = 0
KTAS 140713Z 20010KT 27/11 A2999 RMK A01 T02730105  RH  035%=      5-min Rain = 0
KTAS 140714Z 20009KT 27/11 A2999 RMK A01 T02730105  RH  035%=      5-min Rain = 0
KTAS 140715Z 20009KT 27/11 A2999 RMK A01 T02730105  RH  035%=      5-min Rain = 0
KTAS 140716Z 20010KT 27/10 A2999 RMK A01 T02730104  RH  035%=      5-min Rain = 0
KTAS 140717Z 20009KT 27/11 A2999 RMK A01 T02740105  RH  035%=      5-min Rain = 0
KTAS 140718Z 20009KT 27/11 A2998 RMK A01 T02740105  RH  035%=      5-min Rain = 0
KTAS 140719Z 20010KT 27/11 A2998 RMK A01 T02740105  RH  035%=      5-min Rain = 0
KTAS 140720Z 20010KT 27/11 A2999 RMK A01 T02740105  RH  035%=      5-min Rain = 0
KTAS 140721Z 20010KT 28/11 A2999 RMK A01 T02750105  RH  035%=      5-min Rain = 0
KTAS 140722Z 20011KT 28/11 A2999 RMK A01 T02750106  RH  035%=      5-min Rain = 0
KTAS 140723Z 20010KT 28/11 A2999 RMK A01 T02760106  RH  035%=      5-min Rain = 0
KTAS 140724Z 20010KT 28/11 A2999 RMK A01 T02760106  RH  035%=      5-min Rain = 0
KTAS 140725Z 20011KT 28/11 A2998 RMK A01 T02760106  RH  034%=      5-min Rain = 0
KTAS 140726Z 20011KT 28/11 A2998 RMK A01 T02770106  RH  034%=      5-min Rain = 0
KTAS 140727Z 20011KT 28/11 A2999 RMK A01 T02780107  RH  034%=      5-min Rain = 0
KTAS 140728Z 20011KT 28/11 A2998 RMK A01 T02780107  RH  034%=      5-min Rain = 0
KTAS 140729Z 21011KT 28/11 A2998 RMK A01 T02790107  RH  034%=      5-min Rain = 0
KTAS 140730Z 20012KT 28/11 A2998 RMK A01 T02790107  RH  034%=      5-min Rain = 0
KTAS 140731Z 20011KT 28/11 A2999 RMK A01 T02790107  RH  034%=      5-min Rain = 0
KTAS 140732Z 20012KT 28/11 A2999 RMK A01 T02790108  RH  034%=      5-min Rain = 0
KTAS 140733Z 21011KT 28/11 A2999 RMK A01 T02800109  RH  034%=      5-min Rain = 0
KTAS 140734Z 21010KT 28/11 A2999 RMK A01 T02800109  RH  034%=      5-min Rain = 0
KTAS 140735Z 21011KT 28/11 A2999 RMK A01 T02800109  RH  035%=      5-min Rain = 0
KTAS 140736Z 21010KT 28/11 A2999 RMK A01 T02790110  RH  035%=      5-min Rain = 0
KTAS 140737Z 21011KT 28/11 A2999 RMK A01 T02790110  RH  035%=      5-min Rain = 0
KTAS 140738Z 22010KT 28/11 A2999 RMK A01 T02780111  RH  035%=      5-min Rain = 0
KTAS 140739Z 21011KT 28/11 A2999 RMK A01 T02780111  RH  035%=      5-min Rain = 0
KTAS 140740Z 21010KT 28/11 A2999 RMK A01 T02770111  RH  036%=      5-min Rain = 0
KTAS 140741Z 21010KT 28/11 A2999 RMK A01 T02760111  RH  036%=      5-min Rain = 0
KTAS 140742Z 21010KT 28/11 A2999 RMK A01 T02760111  RH  036%=      5-min Rain = 0
KTAS 140743Z 21011KT 28/11 A2999 RMK A01 T02760111  RH  036%=      5-min Rain = 0
KTAS 140744Z 21010KT 28/11 A2999 RMK A01 T02760111  RH  036%=      5-min Rain = 0
KTAS 140745Z 21010G15KT 28/11 A2999 RMK A01 T02760111  RH  036%=      5-min Rain = 0
KTAS 140746Z 21010KT 28/11 A2999 RMK A01 T02760111  RH  036%=      5-min Rain = 0
KTAS 140747Z 21010KT 28/11 A2999 RMK A01 T02760112  RH  036%=      5-min Rain = 0
KTAS 140748Z 21010KT 28/11 A2999 RMK A01 T02760112  RH  036%=      5-min Rain = 0
KTAS 140749Z 21010KT 28/11 A2999 RMK A01 T02760112  RH  036%=      5-min Rain = 0
KTAS 140750Z 21011KT 28/11 A2999 RMK A01 T02750113  RH  036%=      5-min Rain = 0
KTAS 140751Z 21011KT 28/11 A2999 RMK A01 T02750113  RH  036%=      5-min Rain = 0
KTAS 140752Z 21011KT 28/11 A2999 RMK A01 T02750113  RH  037%=      5-min Rain = 0
KTAS 140753Z 21011KT 27/11 A2999 RMK A01 T02740113  RH  037%=      5-min Rain = 0
KTAS 140754Z 21012KT 27/11 A2999 RMK A01 T02740114  RH  037%=      5-min Rain = 0
KTAS 140755Z 22010KT 27/11 A2999 RMK A01 T02740113  RH  037%=      5-min Rain = 0
KTAS 140756Z 21010KT 27/11 A2999 RMK A01 T02740113  RH  037%=      5-min Rain = 0
KTAS 140757Z 21011KT 27/11 A2999 RMK A01 T02730114  RH  037%=      5-min Rain = 0
KTAS 140758Z 21011KT 27/11 A2999 RMK A01 T02720114  RH  037%=      5-min Rain = 0
KTAS 140759Z 22011KT 27/11 A2999 RMK A01 T02720114  RH  037%=      5-min Rain = 0
KTAS 140800Z 21011KT 27/11 A2999 RMK A01 T02720114  RH  037%=      5-min Rain = 0
KTAS 140801Z 22012KT 27/11 A2999 RMK A01 T02720114  RH  037%=      5-min Rain = 0
KTAS 140802Z 22010KT 27/11 A2999 RMK A01 T02720114  RH  037%=      5-min Rain = 0
KTAS 140803Z 22011KT 27/11 A2999 RMK A01 T02710114  RH  038%=      5-min Rain = 0
KTAS 140804Z 21010KT 27/11 A2999 RMK A01 T02710114  RH  038%=      5-min Rain = 0
KTAS 140805Z 21010KT 27/12 A2999 RMK A01 T02700115  RH  038%=      5-min Rain = 0
KTAS 140806Z 22010KT 27/12 A2999 RMK A01 T02700115  RH  038%=      5-min Rain = 0
KTAS 140807Z 22010KT 27/12 A2999 RMK A01 T02690115  RH  038%=      5-min Rain = 0
KTAS 140808Z 22009KT 27/12 A2999 RMK A01 T02680115  RH  038%=      5-min Rain = 0
KTAS 140809Z 22009KT 27/12 A2999 RMK A01 T02670115  RH  039%=      5-min Rain = 0
KTAS 140810Z 22009KT 27/12 A2999 RMK A01 T02660115  RH  039%=      5-min Rain = 0
KTAS 140811Z 22008KT 27/12 A2999 RMK A01 T02650115  RH  039%=      5-min Rain = 0
KTAS 140812Z 22008KT 26/12 A2999 RMK A01 T02640116  RH  040%=      5-min Rain = 0
KTAS 140813Z 22008KT 26/12 A2999 RMK A01 T02620116  RH  040%=      5-min Rain = 0
KTAS 140814Z 22008KT 26/12 A2999 RMK A01 T02610116  RH  040%=      5-min Rain = 0
KTAS 140815Z 22008KT 26/12 A2999 RMK A01 T02610116  RH  040%=      5-min Rain = 0
KTAS 140816Z 22008KT 26/12 A2999 RMK A01 T02600116  RH  040%=      5-min Rain = 0
KTAS 140817Z 22008KT 26/12 A2999 RMK A01 T02600116  RH  041%=      5-min Rain = 0
KTAS 140818Z 22008KT 26/12 A2999 RMK A01 T02590116  RH  041%=      5-min Rain = 0
KTAS 140819Z 22007KT 26/12 A2999 RMK A01 T02580116  RH  041%=      5-min Rain = 0
KTAS 140820Z 22008KT 26/12 A2999 RMK A01 T02570116  RH  041%=      5-min Rain = 0
KTAS 140821Z 22007KT 26/12 A2999 RMK A01 T02570116  RH  041%=      5-min Rain = 0
KTAS 140822Z 21007KT 26/12 A2999 RMK A01 T02560116  RH  041%=      5-min Rain = 0
KTAS 140823Z 21007KT 26/12 A2999 RMK A01 T02560116  RH  042%=      5-min Rain = 0
KTAS 140824Z 21007KT 26/12 A2999 RMK A01 T02550116  RH  042%=      5-min Rain = 0
KTAS 140825Z 21007KT 26/12 A2999 RMK A01 T02550116  RH  042%=      5-min Rain = 0
KTAS 140826Z 21007KT 25/12 A2999 RMK A01 T02540116  RH  042%=      5-min Rain = 0
KTAS 140827Z 21007KT 25/12 A2999 RMK A01 T02530116  RH  042%=      5-min Rain = 0
KTAS 140828Z 21007KT 25/12 A2999 RMK A01 T02530115  RH  042%=      5-min Rain = 0
KTAS 140829Z 21007KT 25/12 A2999 RMK A01 T02520115  RH  042%=      5-min Rain = 0
KTAS 140830Z 21008KT 25/12 A2999 RMK A01 T02520116  RH  043%=      5-min Rain = 0
KTAS 140831Z 21007KT 25/12 A2999 RMK A01 T02510115  RH  043%=      5-min Rain = 0
KTAS 140832Z 21007KT 25/12 A2999 RMK A01 T02510115  RH  043%=      5-min Rain = 0
KTAS 140833Z 21007KT 25/12 A2999 RMK A01 T02510115  RH  043%=      5-min Rain = 0
KTAS 140834Z 22007KT 25/12 A2999 RMK A01 T02500116  RH  043%=      5-min Rain = 0
KTAS 140835Z 22007KT 25/12 A2999 RMK A01 T02500116  RH  043%=      5-min Rain = 0
KTAS 140836Z 22007KT 25/12 A2999 RMK A01 T02490116  RH  043%=      5-min Rain = 0
KTAS 140837Z 22007KT 25/12 A2999 RMK A01 T02480116  RH  044%=      5-min Rain = 0
KTAS 140838Z 22007KT 25/12 A2999 RMK A01 T02480116  RH  044%=      5-min Rain = 0
KTAS 140839Z 22007KT 25/12 A2999 RMK A01 T02470116  RH  044%=      5-min Rain = 0
KTAS 140840Z 22007KT 25/12 A2999 RMK A01 T02460116  RH  044%=      5-min Rain = 0
KTAS 140841Z 22007KT 25/12 A2999 RMK A01 T02460116  RH  044%=      5-min Rain = 0
KTAS 140842Z 22007KT 25/12 A2999 RMK A01 T02460116  RH  044%=      5-min Rain = 0
KTAS 140843Z 22008KT 25/12 A2999 RMK A01 T02450116  RH  044%=      5-min Rain = 0
KTAS 140844Z 22008KT 25/12 A2999 RMK A01 T02460116  RH  044%=      5-min Rain = 0
KTAS 140845Z 22008KT 25/12 A2999 RMK A01 T02460115  RH  044%=      5-min Rain = 0
KTAS 140846Z 22008KT 25/12 A2999 RMK A01 T02470115  RH  044%=      5-min Rain = 0
KTAS 140847Z 22007KT 25/12 A2999 RMK A01 T02480115  RH  043%=      5-min Rain = 0
KTAS 140848Z 22007KT 25/12 A2999 RMK A01 T02470115  RH  044%=      5-min Rain = 0
KTAS 140849Z 22006KT 25/12 A2999 RMK A01 T02470115  RH  044%=      5-min Rain = 0
KTAS 140850Z 22007KT 25/12 A2999 RMK A01 T02460115  RH  044%=      5-min Rain = 0
KTAS 140851Z 22007KT 25/12 A2999 RMK A01 T02450116  RH  044%=      5-min Rain = 0
KTAS 140852Z 22007KT 24/12 A2999 RMK A01 T02440116  RH  045%=      5-min Rain = 0
KTAS 140853Z 22007KT 24/12 A2999 RMK A01 T02420116  RH  045%=      5-min Rain = 0
KTAS 140854Z 22007KT 24/12 A2999 RMK A01 T02420116  RH  045%=      5-min Rain = 0
KTAS 140855Z 22006KT 24/12 A2999 RMK A01 T02410116  RH  046%=      5-min Rain = 0
KTAS 140856Z 21006KT 24/12 A2999 RMK A01 T02400116  RH  046%=      5-min Rain = 0
KTAS 140857Z 21006KT 24/12 A2999 RMK A01 T02400116  RH  046%=      5-min Rain = 0
KTAS 140858Z 21006KT 24/12 A2999 RMK A01 T02410116  RH  045%=      5-min Rain = 0
KTAS 140859Z 21007KT 24/12 A2999 RMK A01 T02400115  RH  045%=      5-min Rain = 0
KTAS 140900Z 21007KT 24/12 A2999 RMK A01 T02410115  RH  045%=      5-min Rain = 0
KTAS 140901Z 21006KT 24/12 A2999 RMK A01 T02410115  RH  045%=      5-min Rain = 0
KTAS 140902Z 21006KT 24/12 A2999 RMK A01 T02410116  RH  045%=      5-min Rain = 0
KTAS 140903Z 22006KT 24/12 A2999 RMK A01 T02400116  RH  046%=      5-min Rain = 0
KTAS 140904Z 21006KT 24/12 A2999 RMK A01 T02400116  RH  046%=      5-min Rain = 0
KTAS 140905Z 21006KT 24/12 A2999 RMK A01 T02400116  RH  046%=      5-min Rain = 0
KTAS 140906Z 21006KT 24/12 A2999 RMK A01 T02400116  RH  046%=      5-min Rain = 0
KTAS 140907Z 21006KT 24/12 A2999 RMK A01 T02390116  RH  046%=      5-min Rain = 0
KTAS 140908Z 21006KT 24/12 A2999 RMK A01 T02380116  RH  046%=      5-min Rain = 0
KTAS 140909Z 21006KT 24/12 A2999 RMK A01 T02380116  RH  046%=      5-min Rain = 0
KTAS 140910Z 20006KT 24/12 A2999 RMK A01 T02370116  RH  047%=      5-min Rain = 0
KTAS 140911Z 20006KT 24/12 A2999 RMK A01 T02370116  RH  047%=      5-min Rain = 0
KTAS 140912Z 20006KT 24/12 A2999 RMK A01 T02360116  RH  047%=      5-min Rain = 0
KTAS 140913Z 20006KT 24/12 A2999 RMK A01 T02360116  RH  047%=      5-min Rain = 0
KTAS 140914Z 20006KT 24/12 A2999 RMK A01 T02360115  RH  047%=      5-min Rain = 0
KTAS 140915Z 20006KT 24/12 A2999 RMK A01 T02350115  RH  047%=      5-min Rain = 0
KTAS 140916Z 20006KT 24/12 A2999 RMK A01 T02350115  RH  047%=      5-min Rain = 0
KTAS 140917Z 20006KT 23/12 A2999 RMK A01 T02340115  RH  047%=      5-min Rain = 0
KTAS 140918Z 20006KT 23/11 A2999 RMK A01 T02330114  RH  047%=      5-min Rain = 0
KTAS 140919Z 20006KT 23/11 A2999 RMK A01 T02320114  RH  047%=      5-min Rain = 0
KTAS 140920Z 20006KT 23/11 A2999 RMK A01 T02320114  RH  048%=      5-min Rain = 0
KTAS 140921Z 20006KT 23/11 A2999 RMK A01 T02310114  RH  048%=      5-min Rain = 0
KTAS 140922Z 20006KT 23/12 A2999 RMK A01 T02300115  RH  048%=      5-min Rain = 0
KTAS 140923Z 20006KT 23/12 A2999 RMK A01 T02300115  RH  048%=      5-min Rain = 0
KTAS 140924Z 20006KT 23/12 A2999 RMK A01 T02300115  RH  048%=      5-min Rain = 0
KTAS 140925Z 20006KT 23/12 A2999 RMK A01 T02300115  RH  048%=      5-min Rain = 0
KTAS 140926Z 20006KT 23/12 A2999 RMK A01 T02290115  RH  048%=      5-min Rain = 0
KTAS 140927Z 20006KT 23/12 A2999 RMK A01 T02290115  RH  048%=      5-min Rain = 0
KTAS 140928Z 20006KT 23/12 A2999 RMK A01 T02290115  RH  048%=      5-min Rain = 0
KTAS 140929Z 20006KT 23/12 A2999 RMK A01 T02300115  RH  048%=      5-min Rain = 0
KTAS 140930Z 20006KT 23/12 A2999 RMK A01 T02300115  RH  048%=      5-min Rain = 0
KTAS 140931Z 21006KT 23/12 A2999 RMK A01 T02300115  RH  048%=      5-min Rain = 0
KTAS 140932Z 20006KT 23/12 A2999 RMK A01 T02300115  RH  048%=      5-min Rain = 0
KTAS 140933Z 21006KT 23/12 A2999 RMK A01 T02300115  RH  048%=      5-min Rain = 0
KTAS 140934Z 21006KT 23/12 A2999 RMK A01 T02300115  RH  048%=      5-min Rain = 0
KTAS 140935Z 21007KT 23/12 A2999 RMK A01 T02300115  RH  048%=      5-min Rain = 0
KTAS 140936Z 21007KT 23/12 A2999 RMK A01 T02310115  RH  048%=      5-min Rain = 0
KTAS 140937Z 21007KT 23/12 A2999 RMK A01 T02320115  RH  048%=      5-min Rain = 0
KTAS 140938Z 21007KT 23/12 A2999 RMK A01 T02330115  RH  048%=      5-min Rain = 0
KTAS 140939Z 21007KT 23/12 A2999 RMK A01 T02340116  RH  047%=      5-min Rain = 0
KTAS 140940Z 22007KT 24/12 A2999 RMK A01 T02350116  RH  047%=      5-min Rain = 0
KTAS 140941Z 22008KT 24/12 A2999 RMK A01 T02350116  RH  047%=      5-min Rain = 0
KTAS 140942Z 22007KT 24/12 A2999 RMK A01 T02360116  RH  047%=      5-min Rain = 0
KTAS 140943Z 22008KT 24/12 A2999 RMK A01 T02370116  RH  047%=      5-min Rain = 0
KTAS 140944Z 22008KT 24/12 A2999 RMK A01 T02370116  RH  046%=      5-min Rain = 0
KTAS 140945Z 21007KT 24/12 A2999 RMK A01 T02380115  RH  046%=      5-min Rain = 0
KTAS 140946Z 21007KT 24/12 A2999 RMK A01 T02380115  RH  046%=      5-min Rain = 0
KTAS 140947Z 21007KT 24/12 A2999 RMK A01 T02380115  RH  046%=      5-min Rain = 0
KTAS 140948Z 21007KT 24/12 A2999 RMK A01 T02380115  RH  046%=      5-min Rain = 0
KTAS 140949Z 21007KT 24/12 A2999 RMK A01 T02380116  RH  046%=      5-min Rain = 0
KTAS 140950Z 21006KT 24/12 A2999 RMK A01 T02370115  RH  046%=      5-min Rain = 0
KTAS 140951Z 21006KT 24/12 A2999 RMK A01 T02370116  RH  046%=      5-min Rain = 0
KTAS 140952Z 22006KT 24/12 A2999 RMK A01 T02360115  RH  047%=      5-min Rain = 0
KTAS 140953Z 22006KT 24/12 A2999 RMK A01 T02360115  RH  047%=      5-min Rain = 0
KTAS 140954Z 22007KT 24/12 A2999 RMK A01 T02350115  RH  047%=      5-min Rain = 0
KTAS 140955Z 22007KT 23/12 A2999 RMK A01 T02330115  RH  047%=      5-min Rain = 0
KTAS 140956Z 22007KT 23/12 A2999 RMK A01 T02320115  RH  048%=      5-min Rain = 0
KTAS 140957Z 22007KT 23/12 A2999 RMK A01 T02310116  RH  048%=      5-min Rain = 0
KTAS 140958Z 23007KT 23/12 A2999 RMK A01 T02310116  RH  048%=      5-min Rain = 0
KTAS 140959Z 23007KT 23/12 A2999 RMK A01 T02310116  RH  048%=      5-min Rain = 0
KTAS 141000Z 23007KT 23/12 A30 RMK A01 T02300117  RH  049%=      5-min Rain = 0
KTAS 141001Z 23007KT 23/12 A30 RMK A01 T02290117  RH  049%=      5-min Rain = 0
KTAS 141002Z 23007KT 23/12 A30 RMK A01 T02280118  RH  050%=      5-min Rain = 0
KTAS 141003Z 24007KT 23/12 A30 RMK A01 T02270118  RH  050%=      5-min Rain = 0
KTAS 141004Z 24007KT 23/12 A30 RMK A01 T02260118  RH  051%=      5-min Rain = 0
KTAS 141005Z 24007KT 23/12 A30 RMK A01 T02250118  RH  051%=      5-min Rain = 0
KTAS 141006Z 24007KT 22/12 A30 RMK A01 T02240119  RH  051%=      5-min Rain = 0
KTAS 141007Z 24007KT 22/12 A30 RMK A01 T02230120  RH  052%=      5-min Rain = 0
KTAS 141008Z 24007KT 22/12 A30 RMK A01 T02210120  RH  053%=      5-min Rain = 0
KTAS 141009Z 23007KT 22/12 A30 RMK A01 T02210120  RH  053%=      5-min Rain = 0
KTAS 141010Z 23007KT 22/12 A30 RMK A01 T02210121  RH  053%=      5-min Rain = 0
KTAS 141011Z 23007KT 22/12 A30 RMK A01 T02220121  RH  053%=      5-min Rain = 0
KTAS 141012Z 23007KT 22/12 A30 RMK A01 T02220121  RH  053%=      5-min Rain = 0
KTAS 141013Z 23006KT 22/12 A30 RMK A01 T02220121  RH  053%=      5-min Rain = 0
KTAS 141014Z 23006KT 22/12 A30 RMK A01 T02220121  RH  053%=      5-min Rain = 0
KTAS 141015Z 23006KT 22/12 A30 RMK A01 T02220121  RH  052%=      5-min Rain = 0
KTAS 141016Z 23006KT 22/12 A30 RMK A01 T02220120  RH  052%=      5-min Rain = 0
KTAS 141017Z 24006KT 22/12 A30 RMK A01 T02220120  RH  052%=      5-min Rain = 0
KTAS 141018Z 24005KT 22/12 A30 RMK A01 T02220120  RH  052%=      5-min Rain = 0
KTAS 141019Z 24005KT 22/12 A30 RMK A01 T02220120  RH  052%=      5-min Rain = 0
KTAS 141020Z 24005KT 22/12 A30 RMK A01 T02210119  RH  052%=      5-min Rain = 0
KTAS 141021Z 23004KT 22/12 A30 RMK A01 T02210120  RH  052%=      5-min Rain = 0
KTAS 141022Z 23004KT 22/12 A30 RMK A01 T02210120  RH  053%=      5-min Rain = 0
KTAS 141023Z 23004KT 22/12 A30 RMK A01 T02210121  RH  053%=      5-min Rain = 0
KTAS 141024Z 23004KT 22/12 A30 RMK A01 T02210121  RH  053%=      5-min Rain = 0
KTAS 141025Z 23004KT 22/12 A30 RMK A01 T02200121  RH  053%=      5-min Rain = 0
KTAS 141026Z 23004KT 22/12 A30 RMK A01 T02200120  RH  053%=      5-min Rain = 0
KTAS 141027Z 24003KT 22/12 A30 RMK A01 T02210120  RH  053%=      5-min Rain = 0
KTAS 141028Z 24004KT 22/12 A30 RMK A01 T02210120  RH  053%=      5-min Rain = 0
KTAS 141029Z 25004KT 22/12 A30 RMK A01 T02220120  RH  052%=      5-min Rain = 0
KTAS 141030Z 25004KT 22/12 A30 RMK A01 T02220120  RH  052%=      5-min Rain = 0
KTAS 141031Z 25004KT 22/12 A30 RMK A01 T02220120  RH  052%=      5-min Rain = 0
KTAS 141032Z 26004KT 22/12 A30 RMK A01 T02220120  RH  052%=      5-min Rain = 0
KTAS 141033Z 25004KT 22/12 A30 RMK A01 T02220120  RH  052%=      5-min Rain = 0
KTAS 141034Z 25004KT 22/12 A30 RMK A01 T02220119  RH  052%=      5-min Rain = 0
KTAS 141035Z 26004KT 22/12 A30 RMK A01 T02220118  RH  052%=      5-min Rain = 0
KTAS 141036Z 26004KT 22/12 A30 RMK A01 T02230118  RH  052%=      5-min Rain = 0
KTAS 141037Z 26003KT 22/12 A30 RMK A01 T02230119  RH  051%=      5-min Rain = 0
KTAS 141038Z 26004KT 22/12 A30 RMK A01 T02230118  RH  051%=      5-min Rain = 0
KTAS 141039Z 27004KT 22/12 A30 RMK A01 T02230117  RH  051%=      5-min Rain = 0
KTAS 141040Z 26004KT 22/12 A30 RMK A01 T02230118  RH  051%=      5-min Rain = 0
KTAS 141041Z 27004KT 22/12 A30 RMK A01 T02220118  RH  051%=      5-min Rain = 0
KTAS 141042Z 27004KT 22/12 A30 RMK A01 T02220118  RH  051%=      5-min Rain = 0
KTAS 141043Z 27004KT 22/12 A30 RMK A01 T02220118  RH  052%=      5-min Rain = 0
KTAS 141044Z 27004KT 22/12 A30 RMK A01 T02220117  RH  051%=      5-min Rain = 0
KTAS 141045Z 27004KT 22/12 A30 RMK A01 T02220117  RH  051%=      5-min Rain = 0
KTAS 141046Z 27004KT 22/12 A30 RMK A01 T02220116  RH  051%=      5-min Rain = 0
KTAS 141047Z 27004KT 22/12 A30 RMK A01 T02220116  RH  051%=      5-min Rain = 0
KTAS 141048Z 27004KT 22/12 A30 RMK A01 T02220116  RH  051%=      5-min Rain = 0
KTAS 141049Z 27003KT 22/12 A30 RMK A01 T02220115  RH  051%=      5-min Rain = 0
KTAS 141050Z 27003KT 22/12 A30 RMK A01 T02220115  RH  051%=      5-min Rain = 0
KTAS 141051Z 26003KT 22/12 A30 RMK A01 T02220116  RH  051%=      5-min Rain = 0
KTAS 141052Z 25003KT 22/12 A30 RMK A01 T02220115  RH  051%=      5-min Rain = 0
KTAS 141053Z 25003KT 22/12 A30 RMK A01 T02220115  RH  051%=      5-min Rain = 0
KTAS 141054Z 24004KT 22/11 A30 RMK A01 T02230114  RH  050%=      5-min Rain = 0
KTAS 141055Z 24004KT 22/11 A30 RMK A01 T02230114  RH  050%=      5-min Rain = 0
KTAS 141056Z 24004KT 22/11 A30 RMK A01 T02240113  RH  050%=      5-min Rain = 0
KTAS 141057Z 24005KT 23/11 A30 RMK A01 T02250113  RH  049%=      5-min Rain = 0
KTAS 141058Z 24005KT 23/11 A30 RMK A01 T02250114  RH  049%=      5-min Rain = 0
KTAS 141059Z 24005KT 23/11 A30 RMK A01 T02250114  RH  050%=      5-min Rain = 0
KTAS 141100Z 24005KT 22/12 A30 RMK A01 T02240115  RH  050%=      5-min Rain = 0
KTAS 141101Z 24005KT 22/12 A30 RMK A01 T02230115  RH  050%=      5-min Rain = 0
KTAS 141102Z 24005KT 22/12 A30 RMK A01 T02230115  RH  051%=      5-min Rain = 0
KTAS 141103Z 24005KT 22/12 A30 RMK A01 T02220116  RH  051%=      5-min Rain = 0
KTAS 141104Z 24005KT 22/12 A3001 RMK A01 T02220116  RH  051%=      5-min Rain = 0
KTAS 141105Z 24005KT 22/12 A30 RMK A01 T02220115  RH  051%=      5-min Rain = 0
KTAS 141106Z 23005KT 22/12 A30 RMK A01 T02220115  RH  050%=      5-min Rain = 0
KTAS 141107Z 23005KT 22/11 A30 RMK A01 T02230114  RH  050%=      5-min Rain = 0
KTAS 141108Z 23005KT 22/11 A30 RMK A01 T02230114  RH  050%=      5-min Rain = 0
KTAS 141109Z 24005KT 22/11 A30 RMK A01 T02240114  RH  050%=      5-min Rain = 0
KTAS 141110Z 23005KT 22/11 A30 RMK A01 T02240114  RH  050%=      5-min Rain = 0
KTAS 141111Z 23005KT 22/11 A30 RMK A01 T02230113  RH  050%=      5-min Rain = 0
KTAS 141112Z 23005KT 22/11 A30 RMK A01 T02230113  RH  050%=      5-min Rain = 0
KTAS 141113Z 23005KT 22/11 A30 RMK A01 T02220113  RH  050%=      5-min Rain = 0
KTAS 141114Z 23005KT 22/11 A30 RMK A01 T02230113  RH  050%=      5-min Rain = 0
KTAS 141115Z 23005KT 22/11 A30 RMK A01 T02230113  RH  050%=      5-min Rain = 0
KTAS 141116Z 23005KT 22/11 A30 RMK A01 T02230113  RH  050%=      5-min Rain = 0
KTAS 141117Z 23005KT 22/11 A30 RMK A01 T02230114  RH  050%=      5-min Rain = 0
KTAS 141118Z 23005KT 22/11 A30 RMK A01 T02230114  RH  050%=      5-min Rain = 0
KTAS 141119Z 23005KT 22/11 A30 RMK A01 T02240114  RH  050%=      5-min Rain = 0
KTAS 141120Z 23005KT 22/11 A30 RMK A01 T02240114  RH  050%=      5-min Rain = 0
KTAS 141121Z 23005KT 22/11 A30 RMK A01 T02240114  RH  050%=      5-min Rain = 0
KTAS 141122Z 23005KT 22/12 A30 RMK A01 T02230115  RH  050%=      5-min Rain = 0
KTAS 141123Z 23006KT 22/12 A30 RMK A01 T02220115  RH  051%=      5-min Rain = 0
KTAS 141124Z 23006KT 22/12 A30 RMK A01 T02220116  RH  051%=      5-min Rain = 0
KTAS 141125Z 23006KT 22/12 A30 RMK A01 T02220116  RH  051%=      5-min Rain = 0
KTAS 141126Z 23005KT 22/12 A30 RMK A01 T02220116  RH  051%=      5-min Rain = 0
KTAS 141127Z 23005KT 22/12 A30 RMK A01 T02210116  RH  051%=      5-min Rain = 0
KTAS 141128Z 23005KT 22/12 A30 RMK A01 T02210117  RH  051%=      5-min Rain = 0
KTAS 141129Z 23006KT 22/12 A30 RMK A01 T02210117  RH  051%=      5-min Rain = 0
KTAS 141130Z 24006KT 22/12 A30 RMK A01 T02210117  RH  052%=      5-min Rain = 0
KTAS 141131Z 24005KT 22/12 A30 RMK A01 T02200118  RH  052%=      5-min Rain = 0
KTAS 141132Z 24005KT 22/12 A30 RMK A01 T02190118  RH  053%=      5-min Rain = 0
KTAS 141133Z 24005KT 22/12 A30 RMK A01 T02190119  RH  053%=      5-min Rain = 0
KTAS 141134Z 24005KT 22/12 A30 RMK A01 T02190119  RH  053%=      5-min Rain = 0
KTAS 141135Z 24005KT 22/12 A30 RMK A01 T02190119  RH  053%=      5-min Rain = 0
KTAS 141136Z 24005KT 22/12 A30 RMK A01 T02180119  RH  053%=      5-min Rain = 0
KTAS 141137Z 24005KT 22/12 A30 RMK A01 T02190120  RH  053%=      5-min Rain = 0
KTAS 141138Z 24005KT 22/12 A30 RMK A01 T02190120  RH  053%=      5-min Rain = 0
KTAS 141139Z 24005KT 22/12 A30 RMK A01 T02190119  RH  053%=      5-min Rain = 0
KTAS 141140Z 24005KT 22/12 A30 RMK A01 T02180119  RH  053%=      5-min Rain = 0
KTAS 141141Z 24005KT 22/12 A30 RMK A01 T02180120  RH  053%=      5-min Rain = 0
KTAS 141142Z 24005KT 22/12 A30 RMK A01 T02180120  RH  054%=      5-min Rain = 0
KTAS 141143Z 24005KT 22/12 A3001 RMK A01 T02180120  RH  054%=      5-min Rain = 0
KTAS 141144Z 24005KT 22/12 A3001 RMK A01 T02170121  RH  054%=      5-min Rain = 0
KTAS 141145Z 25005KT 22/12 A3001 RMK A01 T02160121  RH  055%=      5-min Rain = 0
KTAS 141146Z 25005KT 21/12 A3001 RMK A01 T02140121  RH  055%=      5-min Rain = 0
KTAS 141147Z 25005KT 21/12 A3001 RMK A01 T02140121  RH  055%=      5-min Rain = 0
KTAS 141148Z 25005KT 21/12 A3001 RMK A01 T02140121  RH  055%=      5-min Rain = 0
KTAS 141149Z 25006KT 22/12 A3001 RMK A01 T02150121  RH  055%=      5-min Rain = 0
KTAS 141150Z 25005KT 22/12 A3001 RMK A01 T02150121  RH  055%=      5-min Rain = 0
KTAS 141151Z 25005KT 22/12 A3001 RMK A01 T02150121  RH  055%=      5-min Rain = 0
KTAS 141152Z 25005KT 22/12 A3001 RMK A01 T02150121  RH  055%=      5-min Rain = 0
KTAS 141153Z 24006KT 22/12 A3001 RMK A01 T02150121  RH  055%=      5-min Rain = 0
KTAS 141154Z 24006KT 22/12 A3001 RMK A01 T02150121  RH  055%=      5-min Rain = 0
KTAS 141155Z 25006KT 22/12 A3001 RMK A01 T02150121  RH  055%=      5-min Rain = 0
KTAS 141156Z 25006KT 22/12 A3001 RMK A01 T02150122  RH  055%=      5-min Rain = 0
KTAS 141157Z 25006KT 22/12 A3001 RMK A01 T02150122  RH  055%=      5-min Rain = 0
KTAS 141158Z 25007KT 22/12 A3001 RMK A01 T02150122  RH  055%=      5-min Rain = 0
KTAS 141159Z 25007KT 22/12 A3001 RMK A01 T02150122  RH  055%=      5-min Rain = 0
KTAS 141200Z 25007KT 22/12 A3001 RMK A01 T02150123  RH  056%=      5-min Rain = 0
KTAS 141201Z 25007KT 22/12 A3001 RMK A01 T02150123  RH  056%=      5-min Rain = 0
KTAS 141202Z 25008KT 22/12 A3001 RMK A01 T02150124  RH  056%=      5-min Rain = 0
KTAS 141203Z 24008KT 22/12 A3001 RMK A01 T02160124  RH  056%=      5-min Rain = 0
KTAS 141204Z 24008KT 22/13 A3001 RMK A01 T02170125  RH  056%=      5-min Rain = 0
KTAS 141205Z 24008KT 22/13 A3001 RMK A01 T02180125  RH  055%=      5-min Rain = 0
KTAS 141206Z 24007KT 22/13 A3001 RMK A01 T02200126  RH  055%=      5-min Rain = 0
KTAS 141207Z 24007KT 22/13 A3001 RMK A01 T02220126  RH  054%=      5-min Rain = 0
KTAS 141208Z 24008KT 22/13 A3001 RMK A01 T02230126  RH  054%=      5-min Rain = 0
KTAS 141209Z 24007KT 22/13 A3001 RMK A01 T02240126  RH  054%=      5-min Rain = 0
KTAS 141210Z 24008KT 23/13 A3001 RMK A01 T02250126  RH  053%=      5-min Rain = 0
KTAS 141211Z 24007KT 23/13 A3001 RMK A01 T02260126  RH  053%=      5-min Rain = 0
KTAS 141212Z 24007KT 23/13 A3001 RMK A01 T02260126  RH  053%=      5-min Rain = 0
KTAS 141213Z 24007KT 23/13 A3001 RMK A01 T02270126  RH  053%=      5-min Rain = 0
KTAS 141214Z 24007KT 23/13 A3001 RMK A01 T02270126  RH  053%=      5-min Rain = 0
KTAS 141215Z 24007KT 23/13 A3001 RMK A01 T02280126  RH  053%=      5-min Rain = 0
KTAS 141216Z 25007KT 23/13 A3001 RMK A01 T02280126  RH  053%=      5-min Rain = 0
KTAS 141217Z 25007KT 23/13 A3001 RMK A01 T02280126  RH  053%=      5-min Rain = 0
KTAS 141218Z 25007KT 23/13 A3001 RMK A01 T02280126  RH  053%=      5-min Rain = 0
KTAS 141219Z 25007KT 23/13 A3001 RMK A01 T02280126  RH  052%=      5-min Rain = 0
KTAS 141220Z 25007KT 23/13 A3001 RMK A01 T02290127  RH  052%=      5-min Rain = 0
KTAS 141221Z 24007KT 23/13 A3001 RMK A01 T02300127  RH  052%=      5-min Rain = 0
KTAS 141222Z 24007KT 23/13 A3001 RMK A01 T02300127  RH  052%=      5-min Rain = 0
KTAS 141223Z 25007KT 23/13 A3001 RMK A01 T02310127  RH  052%=      5-min Rain = 0
KTAS 141224Z 25007KT 23/13 A3001 RMK A01 T02320127  RH  052%=      5-min Rain = 0
KTAS 141225Z 25007KT 23/13 A3001 RMK A01 T02320127  RH  052%=      5-min Rain = 0
KTAS 141226Z 25007KT 23/13 A3001 RMK A01 T02320127  RH  052%=      5-min Rain = 0
KTAS 141227Z 25007KT 23/13 A3001 RMK A01 T02320127  RH  052%=      5-min Rain = 0
KTAS 141228Z 25008KT 23/13 A3001 RMK A01 T02320127  RH  052%=      5-min Rain = 0
KTAS 141229Z 25007KT 23/13 A3001 RMK A01 T02320127  RH  052%=      5-min Rain = 0
KTAS 141230Z 25007KT 23/13 A3001 RMK A01 T02320128  RH  052%=      5-min Rain = 0
KTAS 141231Z 25007KT 23/13 A3001 RMK A01 T02310128  RH  052%=      5-min Rain = 0
KTAS 141232Z 25007KT 23/13 A3001 RMK A01 T02310128  RH  052%=      5-min Rain = 0
KTAS 141233Z 25008KT 23/13 A3001 RMK A01 T02310128  RH  052%=      5-min Rain = 0
KTAS 141234Z 25008KT 23/13 A3001 RMK A01 T02320128  RH  052%=      5-min Rain = 0
KTAS 141235Z 24007KT 23/13 A3001 RMK A01 T02320128  RH  052%=      5-min Rain = 0
KTAS 141236Z 25008KT 23/13 A3001 RMK A01 T02340128  RH  051%=      5-min Rain = 0
KTAS 141237Z 25008KT 23/13 A3001 RMK A01 T02340128  RH  051%=      5-min Rain = 0
KTAS 141238Z 25008KT 24/13 A3002 RMK A01 T02350128  RH  051%=      5-min Rain = 0
KTAS 141239Z 25008KT 24/13 A3002 RMK A01 T02360129  RH  051%=      5-min Rain = 0
KTAS 141240Z 24008KT 24/13 A3002 RMK A01 T02370129  RH  051%=      5-min Rain = 0
KTAS 141241Z 24008KT 24/13 A3002 RMK A01 T02380129  RH  051%=      5-min Rain = 0
KTAS 141242Z 24007KT 24/13 A3002 RMK A01 T02380129  RH  051%=      5-min Rain = 0
KTAS 141243Z 24007KT 24/13 A3002 RMK A01 T02380129  RH  050%=      5-min Rain = 0
KTAS 141244Z 24008KT 24/13 A3002 RMK A01 T02390129  RH  050%=      5-min Rain = 0
KTAS 141245Z 24007KT 24/13 A3002 RMK A01 T02390129  RH  050%=      5-min Rain = 0
KTAS 141246Z 24007KT 24/13 A3002 RMK A01 T02390130  RH  050%=      5-min Rain = 0
KTAS 141247Z 24007KT 24/13 A3002 RMK A01 T02400131  RH  051%=      5-min Rain = 0
KTAS 141248Z 24007KT 24/13 A3002 RMK A01 T02400131  RH  051%=      5-min Rain = 0
KTAS 141249Z 24007KT 24/13 A3002 RMK A01 T02400132  RH  051%=      5-min Rain = 0
KTAS 141250Z 23007KT 24/13 A3002 RMK A01 T02410132  RH  051%=      5-min Rain = 0
KTAS 141251Z 23007KT 24/13 A3002 RMK A01 T02420133  RH  050%=      5-min Rain = 0
KTAS 141252Z 23007KT 24/13 A3002 RMK A01 T02430133  RH  050%=      5-min Rain = 0
KTAS 141253Z 23007KT 24/13 A3002 RMK A01 T02430133  RH  050%=      5-min Rain = 0
KTAS 141254Z 23007KT 24/13 A3002 RMK A01 T02440133  RH  050%=      5-min Rain = 0
KTAS 141255Z 23007KT 25/13 A3002 RMK A01 T02450134  RH  050%=      5-min Rain = 0
KTAS 141256Z 23007KT 25/13 A3002 RMK A01 T02460134  RH  049%=      5-min Rain = 0
KTAS 141257Z 23007KT 25/13 A3002 RMK A01 T02470134  RH  049%=      5-min Rain = 0
KTAS 141258Z 23007KT 25/13 A3002 RMK A01 T02470134  RH  049%=      5-min Rain = 0
KTAS 141259Z 23006KT 25/14 A3002 RMK A01 T02480135  RH  049%=      5-min Rain = 0
KTAS 141300Z 23007KT 25/14 A3002 RMK A01 T02480135  RH  049%=      5-min Rain = 0
KTAS 141301Z 22007KT 25/14 A3002 RMK A01 T02480136  RH  050%=      5-min Rain = 0
KTAS 141302Z 22007KT 25/14 A3002 RMK A01 T02480136  RH  050%=      5-min Rain = 0
KTAS 141303Z 23007KT 25/14 A3002 RMK A01 T02480137  RH  050%=      5-min Rain = 0
KTAS 141304Z 23008KT 25/14 A3002 RMK A01 T02480137  RH  050%=      5-min Rain = 0
KTAS 141305Z 23007KT 25/14 A3002 RMK A01 T02490138  RH  050%=      5-min Rain = 0
KTAS 141306Z 23007KT 25/14 A3002 RMK A01 T02500137  RH  050%=      5-min Rain = 0
KTAS 141307Z 23008KT 25/14 A3002 RMK A01 T02510138  RH  050%=      5-min Rain = 0
KTAS 141308Z 23008KT 25/14 A3002 RMK A01 T02510138  RH  049%=      5-min Rain = 0
KTAS 141309Z 23007KT 25/14 A3002 RMK A01 T02520138  RH  049%=      5-min Rain = 0
KTAS 141310Z 23007KT 25/14 A3002 RMK A01 T02520138  RH  049%=      5-min Rain = 0
KTAS 141311Z 23008KT 25/14 A3002 RMK A01 T02530139  RH  049%=      5-min Rain = 0
KTAS 141312Z 22008KT 26/14 A3002 RMK A01 T02550139  RH  049%=      5-min Rain = 0
KTAS 141313Z 23008KT 26/14 A3002 RMK A01 T02580140  RH  048%=      5-min Rain = 0
KTAS 141314Z 23008KT 26/14 A3002 RMK A01 T02590139  RH  047%=      5-min Rain = 0
KTAS 141315Z 22007KT 26/14 A3002 RMK A01 T02600139  RH  047%=      5-min Rain = 0
KTAS 141316Z 22007KT 26/14 A3002 RMK A01 T02610139  RH  047%=      5-min Rain = 0
KTAS 141317Z 22008KT 26/14 A3002 RMK A01 T02620140  RH  047%=      5-min Rain = 0
KTAS 141318Z 22007KT 26/14 A3002 RMK A01 T02630140  RH  046%=      5-min Rain = 0
KTAS 141319Z 22009KT 26/14 A3002 RMK A01 T02640140  RH  046%=      5-min Rain = 0
KTAS 141320Z 22008KT 27/14 A3002 RMK A01 T02650139  RH  046%=      5-min Rain = 0
KTAS 141321Z 22009KT 27/14 A3002 RMK A01 T02660139  RH  045%=      5-min Rain = 0
KTAS 141322Z 22007KT 27/14 A3002 RMK A01 T02670139  RH  045%=      5-min Rain = 0
KTAS 141323Z 22009KT 27/14 A3002 RMK A01 T02680138  RH  045%=      5-min Rain = 0
KTAS 141324Z 23009KT 27/14 A3002 RMK A01 T02680139  RH  045%=      5-min Rain = 0
KTAS 141325Z 22009KT 27/14 A3002 RMK A01 T02690139  RH  045%=      5-min Rain = 0
KTAS 141326Z 22009KT 27/14 A3002 RMK A01 T02700139  RH  045%=      5-min Rain = 0
KTAS 141327Z 22008KT 27/14 A3002 RMK A01 T02710140  RH  044%=      5-min Rain = 0
KTAS 141328Z 22010KT 27/14 A3002 RMK A01 T02730140  RH  044%=      5-min Rain = 0
KTAS 141329Z 22010KT 27/14 A3002 RMK A01 T02730140  RH  044%=      5-min Rain = 0
KTAS 141330Z 22010KT 27/14 A3002 RMK A01 T02740140  RH  044%=      5-min Rain = 0
KTAS 141331Z 22010KT 28/14 A3002 RMK A01 T02750140  RH  043%=      5-min Rain = 0
KTAS 141332Z 22010KT 28/14 A3002 RMK A01 T02770141  RH  043%=      5-min Rain = 0
KTAS 141333Z 22010KT 28/14 A3002 RMK A01 T02780140  RH  043%=      5-min Rain = 0
KTAS 141334Z 23010KT 28/14 A3002 RMK A01 T02770141  RH  043%=      5-min Rain = 0
KTAS 141335Z 22010KT 28/14 A3002 RMK A01 T02760142  RH  044%=      5-min Rain = 0
KTAS 141336Z 22009KT 28/14 A3002 RMK A01 T02750141  RH  044%=      5-min Rain = 0
KTAS 141337Z 21007KT 28/14 A3002 RMK A01 T02750142  RH  044%=      5-min Rain = 0
KTAS 141338Z 22009KT 28/14 A3002 RMK A01 T02750142  RH  044%=      5-min Rain = 0
KTAS 141339Z 21011KT 28/14 A3002 RMK A01 T02760140  RH  043%=      5-min Rain = 0
KTAS 141340Z 22011G16KT 28/14 A3002 RMK A01 T02770139  RH  043%=      5-min Rain = 0
KTAS 141341Z 22011G17KT 28/14 A3001 RMK A01 T02780138  RH  042%=      5-min Rain = 0
KTAS 141342Z 21011KT 28/14 A3002 RMK A01 T02790139  RH  042%=      5-min Rain = 0
KTAS 141343Z 22012KT 28/14 A3002 RMK A01 T02790139  RH  042%=      5-min Rain = 0
KTAS 141344Z 21010KT 28/14 A3002 RMK A01 T02790139  RH  042%=      5-min Rain = 0
KTAS 141345Z 21011KT 28/14 A3002 RMK A01 T02800140  RH  042%=      5-min Rain = 0
KTAS 141346Z 22011KT 28/14 A3002 RMK A01 T02800140  RH  042%=      5-min Rain = 0
KTAS 141347Z 21012KT 28/14 A3002 RMK A01 T02810140  RH  042%=      5-min Rain = 0
KTAS 141348Z 21011KT 28/14 A3002 RMK A01 T02810140  RH  042%=      5-min Rain = 0
KTAS 141349Z 21012KT 28/14 A3002 RMK A01 T02810140  RH  042%=      5-min Rain = 0
KTAS 141350Z 21012KT 28/14 A3002 RMK A01 T02810138  RH  042%=      5-min Rain = 0
KTAS 141351Z 21010KT 28/14 A3002 RMK A01 T02810139  RH  042%=      5-min Rain = 0
KTAS 141352Z 21010KT 28/14 A3002 RMK A01 T02820139  RH  042%=      5-min Rain = 0
KTAS 141353Z 21012KT 28/14 A3002 RMK A01 T02820140  RH  042%=      5-min Rain = 0
KTAS 141354Z 21009KT 28/14 A3002 RMK A01 T02830141  RH  042%=      5-min Rain = 0
KTAS 141355Z 21010KT 28/14 A3002 RMK A01 T02840141  RH  041%=      5-min Rain = 0
KTAS 141356Z 21010KT 29/14 A3002 RMK A01 T02850141  RH  041%=      5-min Rain = 0
KTAS 141357Z 20013KT 29/14 A3002 RMK A01 T02860140  RH  041%=      5-min Rain = 0
KTAS 141358Z 21015G20KT 29/14 A3002 RMK A01 T02870140  RH  041%=      5-min Rain = 0
KTAS 141359Z 21015KT 29/14 A3002 RMK A01 T02890139  RH  040%=      5-min Rain = 0
KTAS 141400Z 21015G20KT 29/14 A3002 RMK A01 T02900139  RH  040%=      5-min Rain = 0
KTAS 141401Z 21016KT 29/14 A3002 RMK A01 T02910140  RH  040%=      5-min Rain = 0
KTAS 141402Z 21012KT 29/14 A3002 RMK A01 T02930141  RH  039%=      5-min Rain = 0
KTAS 141403Z 21013KT 30/14 A3002 RMK A01 T02960142  RH  039%=      5-min Rain = 0
KTAS 141404Z 21014KT 30/14 A3002 RMK A01 T02980142  RH  039%=      5-min Rain = 0
KTAS 141405Z 21013KT 30/14 A3002 RMK A01 T02970142  RH  039%=      5-min Rain = 0
KTAS 141406Z 21014KT 30/14 A3002 RMK A01 T02980143  RH  039%=      5-min Rain = 0
KTAS 141407Z 22015KT 30/14 A3002 RMK A01 T02970142  RH  039%=      5-min Rain = 0
KTAS 141408Z 21013KT 30/14 A3002 RMK A01 T02980143  RH  039%=      5-min Rain = 0
KTAS 141409Z 21012KT 30/14 A3002 RMK A01 T03000143  RH  039%=      5-min Rain = 0
KTAS 141410Z 22013KT 30/14 A3002 RMK A01 T03000143  RH  038%=      5-min Rain = 0
KTAS 141411Z 22013KT 30/14 A3002 RMK A01 T03010144  RH  038%=      5-min Rain = 0
KTAS 141412Z 23012KT 30/14 A3002 RMK A01 T03010144  RH  038%=      5-min Rain = 0
KTAS 141413Z 22014KT 30/14 A3002 RMK A01 T03010144  RH  038%=      5-min Rain = 0
KTAS 141414Z 22010KT 30/15 A3002 RMK A01 T03010145  RH  038%=      5-min Rain = 0
KTAS 141415Z 22013KT 30/14 A3002 RMK A01 T03020144  RH  038%=      5-min Rain = 0
KTAS 141416Z 22014KT 30/14 A3002 RMK A01 T03000144  RH  039%=      5-min Rain = 0
KTAS 141417Z 22015KT 30/14 A3002 RMK A01 T03000143  RH  038%=      5-min Rain = 0
KTAS 141418Z 22015KT 30/14 A3002 RMK A01 T02990143  RH  039%=      5-min Rain = 0
KTAS 141419Z 22015KT 30/14 A3002 RMK A01 T03000143  RH  038%=      5-min Rain = 0
KTAS 141420Z 22013KT 30/14 A3002 RMK A01 T03010144  RH  038%=      5-min Rain = 0
KTAS 141421Z 23014KT 30/14 A3002 RMK A01 T03010144  RH  039%=      5-min Rain = 0
KTAS 141422Z 23012KT 30/15 A3002 RMK A01 T03020146  RH  039%=      5-min Rain = 0
KTAS 141423Z 22013KT 30/15 A3002 RMK A01 T03030145  RH  038%=      5-min Rain = 0
KTAS 141424Z 23012KT 30/15 A3002 RMK A01 T03030146  RH  038%=      5-min Rain = 0
KTAS 141425Z 23012G18KT 30/15 A3002 RMK A01 T03030148  RH  039%=      5-min Rain = 0
KTAS 141426Z 22015KT 30/14 A3002 RMK A01 T03030144  RH  038%=      5-min Rain = 0
KTAS 141427Z 23013KT 30/15 A3002 RMK A01 T03010145  RH  039%=      5-min Rain = 0
KTAS 141428Z 24012G17KT 30/15 A3002 RMK A01 T03010147  RH  039%=      5-min Rain = 0
KTAS 141429Z 23013KT 30/15 A3002 RMK A01 T03010148  RH  039%=      5-min Rain = 0
KTAS 141430Z 23013KT 30/15 A3002 RMK A01 T03000148  RH  040%=      5-min Rain = 0
KTAS 141431Z 22011KT 30/15 A3002 RMK A01 T03010147  RH  039%=      5-min Rain = 0
KTAS 141432Z 22013KT 30/15 A3002 RMK A01 T03010148  RH  039%=      5-min Rain = 0
KTAS 141433Z 23014KT 30/15 A3002 RMK A01 T03010149  RH  040%=      5-min Rain = 0
KTAS 141434Z 22012KT 30/15 A3002 RMK A01 T03020148  RH  039%=      5-min Rain = 0
KTAS 141435Z 22012KT 30/15 A3002 RMK A01 T03040148  RH  039%=      5-min Rain = 0
KTAS 141436Z 22013KT 30/15 A3002 RMK A01 T03040150  RH  039%=      5-min Rain = 0
KTAS 141437Z 23012KT 30/15 A3002 RMK A01 T03040150  RH  039%=      5-min Rain = 0
KTAS 141438Z 22012KT 30/15 A3002 RMK A01 T03040150  RH  039%=      5-min Rain = 0
KTAS 141439Z 22012KT 31/15 A3002 RMK A01 T03050151  RH  039%=      5-min Rain = 0
KTAS 141440Z 22012KT 31/15 A3002 RMK A01 T03050152  RH  039%=      5-min Rain = 0
KTAS 141441Z 22012KT 31/15 A3002 RMK A01 T03060151  RH  039%=      5-min Rain = 0
KTAS 141442Z 22010KT 31/15 A3002 RMK A01 T03080152  RH  039%=      5-min Rain = 0
KTAS 141443Z 22011KT 31/15 A3002 RMK A01 T03100152  RH  038%=      5-min Rain = 0
KTAS 141444Z 22013KT 31/15 A3002 RMK A01 T03110149  RH  038%=      5-min Rain = 0
KTAS 141445Z 22013KT 31/15 A3002 RMK A01 T03120148  RH  037%=      5-min Rain = 0
KTAS 141446Z 22014KT 31/15 A3002 RMK A01 T03130148  RH  037%=      5-min Rain = 0
KTAS 141447Z 22014KT 31/15 A3002 RMK A01 T03120148  RH  037%=      5-min Rain = 0
KTAS 141448Z 22014KT 31/15 A3002 RMK A01 T03130147  RH  037%=      5-min Rain = 0
KTAS 141449Z 22014KT 31/15 A3002 RMK A01 T03140147  RH  036%=      5-min Rain = 0
KTAS 141450Z 22016KT 31/15 A3003 RMK A01 T03140148  RH  037%=      5-min Rain = 0
KTAS 141451Z 22013KT 31/15 A3003 RMK A01 T03130149  RH  037%=      5-min Rain = 0
KTAS 141452Z 22013KT 32/15 A3003 RMK A01 T03160150  RH  037%=      5-min Rain = 0
KTAS 141453Z 22014KT 32/15 A3002 RMK A01 T03150149  RH  036%=      5-min Rain = 0
KTAS 141454Z 22012KT 31/15 A3002 RMK A01 T03140150  RH  037%=      5-min Rain = 0
KTAS 141455Z 22011KT 31/15 A3003 RMK A01 T03140152  RH  038%=      5-min Rain = 0
KTAS 141456Z 23014KT 32/15 A3003 RMK A01 T03170153  RH  037%=      5-min Rain = 0
KTAS 141457Z 23014KT 32/15 A3003 RMK A01 T03180150  RH  036%=      5-min Rain = 0
KTAS 141458Z 23014KT 32/15 A3003 RMK A01 T03170149  RH  036%=      5-min Rain = 0
KTAS 141459Z 23012KT 32/15 A3003 RMK A01 T03150149  RH  037%=      5-min Rain = 0
KTAS 141500Z 23014KT 31/15 A3003 RMK A01 T03140150  RH  037%=      5-min Rain = 0
KTAS 141501Z 22013KT 32/15 A3003 RMK A01 T03150149  RH  037%=      5-min Rain = 0
KTAS 141502Z 22013KT 31/15 A3002 RMK A01 T03140149  RH  037%=      5-min Rain = 0
KTAS 141503Z 22012KT 31/15 A3002 RMK A01 T03120149  RH  037%=      5-min Rain = 0
KTAS 141504Z 21013KT 31/15 A3002 RMK A01 T03110147  RH  037%=      5-min Rain = 0
KTAS 141505Z 21013KT 31/15 A3002 RMK A01 T03110145  RH  037%=      5-min Rain = 0
KTAS 141506Z 23010KT 31/15 A3002 RMK A01 T03100147  RH  037%=      5-min Rain = 0
KTAS 141507Z 22012KT 31/15 A3002 RMK A01 T03100148  RH  037%=      5-min Rain = 0
KTAS 141508Z 22012KT 31/15 A3002 RMK A01 T03090147  RH  037%=      5-min Rain = 0
KTAS 141509Z 22012KT 31/15 A3002 RMK A01 T03080146  RH  037%=      5-min Rain = 0
KTAS 141510Z 22013KT 31/14 A3002 RMK A01 T03080144  RH  037%=      5-min Rain = 0
KTAS 141511Z 22011KT 31/14 A3003 RMK A01 T03070144  RH  037%=      5-min Rain = 0
KTAS 141512Z 22013KT 31/14 A3003 RMK A01 T03080144  RH  037%=      5-min Rain = 0
KTAS 141513Z 22010KT 31/14 A3003 RMK A01 T03090144  RH  037%=      5-min Rain = 0
KTAS 141514Z 21009KT 31/15 A3003 RMK A01 T03090146  RH  037%=      5-min Rain = 0
KTAS 141515Z 21010KT 31/15 A3002 RMK A01 T03100146  RH  037%=      5-min Rain = 0
KTAS 141516Z 21010KT 31/15 A3003 RMK A01 T03100147  RH  037%=      5-min Rain = 0
KTAS 141517Z 22010KT 31/15 A3003 RMK A01 T03110147  RH  037%=      5-min Rain = 0
KTAS 141518Z 22012KT 31/15 A3002 RMK A01 T03110147  RH  037%=      5-min Rain = 0
KTAS 141519Z 22010KT 31/15 A3002 RMK A01 T03090148  RH  038%=      5-min Rain = 0
KTAS 141520Z 22009KT 31/15 A3002 RMK A01 T03090150  RH  038%=      5-min Rain = 0
KTAS 141521Z 23008KT 31/15 A3002 RMK A01 T03080151  RH  038%=      5-min Rain = 0
KTAS 141522Z 22008KT 31/15 A3003 RMK A01 T03090152  RH  039%=      5-min Rain = 0
KTAS 141523Z 22007KT 31/15 A3003 RMK A01 T03100152  RH  038%=      5-min Rain = 0
KTAS 141524Z 22010KT 31/15 A3002 RMK A01 T03130149  RH  037%=      5-min Rain = 0
KTAS 141525Z 21011KT 31/14 A3002 RMK A01 T03140144  RH  036%=      5-min Rain = 0
KTAS 141526Z 22009KT 32/15 A3002 RMK A01 T03150145  RH  036%=      5-min Rain = 0
KTAS 141527Z 21008KT 32/15 A3002 RMK A01 T03150147  RH  036%=      5-min Rain = 0
KTAS 141528Z 22009KT 32/15 A3002 RMK A01 T03150146  RH  036%=      5-min Rain = 0
KTAS 141529Z 21010KT 32/15 A3002 RMK A01 T03150146  RH  036%=      5-min Rain = 0
KTAS 141530Z 22009KT 32/15 A3002 RMK A01 T03150146  RH  036%=      5-min Rain = 0
KTAS 141531Z 22007KT 32/15 A3002 RMK A01 T03160151  RH  037%=      5-min Rain = 0
KTAS 141532Z 22010KT 32/15 A3002 RMK A01 T03170149  RH  036%=      5-min Rain = 0
KTAS 141533Z 22010KT 32/15 A3002 RMK A01 T03160149  RH  036%=      5-min Rain = 0
KTAS 141534Z 22008KT 32/15 A3002 RMK A01 T03150149  RH  037%=      5-min Rain = 0
KTAS 141535Z 22009KT 32/15 A3002 RMK A01 T03150149  RH  037%=      5-min Rain = 0
KTAS 141536Z 22009KT 32/15 A3002 RMK A01 T03160149  RH  036%=      5-min Rain = 0
KTAS 141537Z 22009KT 32/15 A3002 RMK A01 T03160149  RH  036%=      5-min Rain = 0
KTAS 141538Z 22010G15KT 32/15 A3002 RMK A01 T03170148  RH  036%=      5-min Rain = 0
KTAS 141539Z 22011KT 32/14 A3002 RMK A01 T03170144  RH  035%=      5-min Rain = 0
KTAS 141540Z 21011KT 32/14 A3002 RMK A01 T03170143  RH  035%=      5-min Rain = 0
KTAS 141541Z 21010KT 32/14 A3002 RMK A01 T03180144  RH  035%=      5-min Rain = 0
KTAS 141542Z 22012KT 32/14 A3002 RMK A01 T03190142  RH  034%=      5-min Rain = 0
KTAS 141543Z 21010KT 32/14 A3002 RMK A01 T03190143  RH  034%=      5-min Rain = 0
KTAS 141544Z 21010KT 32/14 A3002 RMK A01 T03200143  RH  034%=      5-min Rain = 0
KTAS 141545Z 22011KT 32/14 A3003 RMK A01 T03200140  RH  033%=      5-min Rain = 0
KTAS 141546Z 22009KT 32/14 A3003 RMK A01 T03220142  RH  034%=      5-min Rain = 0
KTAS 141547Z 23010KT 32/15 A3003 RMK A01 T03230146  RH  034%=      5-min Rain = 0
KTAS 141548Z 23010KT 32/15 A3003 RMK A01 T03220150  RH  035%=      5-min Rain = 0
KTAS 141549Z 23008KT 32/16 A3003 RMK A01 T03200155  RH  037%=      5-min Rain = 0
KTAS 141550Z 22009KT 32/16 A3003 RMK A01 T03190155  RH  037%=      5-min Rain = 0
KTAS 141551Z 22009KT 32/15 A3002 RMK A01 T03190153  RH  037%=      5-min Rain = 0
KTAS 141552Z 21010KT 32/15 A3002 RMK A01 T03190154  RH  037%=      5-min Rain = 0
KTAS 141553Z 22010KT 32/15 A3002 RMK A01 T03190153  RH  037%=      5-min Rain = 0
KTAS 141554Z 22012KT 32/15 A3002 RMK A01 T03190150  RH  036%=      5-min Rain = 0
KTAS 141555Z 22010KT 32/15 A3002 RMK A01 T03200149  RH  036%=      5-min Rain = 0
KTAS 141556Z 22009KT 32/15 A3002 RMK A01 T03210149  RH  035%=      5-min Rain = 0
KTAS 141557Z 22009KT 32/15 A3002 RMK A01 T03230146  RH  034%=      5-min Rain = 0
KTAS 141558Z 21009KT 32/14 A3002 RMK A01 T03240144  RH  034%=      5-min Rain = 0
KTAS 141559Z 21009KT 33/14 A3002 RMK A01 T03260142  RH  033%=      5-min Rain = 0
KTAS 141600Z 21010KT 33/14 A3002 RMK A01 T03280140  RH  032%=      5-min Rain = 0
KTAS 141601Z 21011KT 33/14 A3002 RMK A01 T03300139  RH  032%=      5-min Rain = 0
KTAS 141602Z 21011KT 33/14 A3002 RMK A01 T03310137  RH  031%=      5-min Rain = 0
KTAS 141603Z 21010KT 33/14 A3002 RMK A01 T03310135  RH  030%=      5-min Rain = 0
KTAS 141604Z 21009KT 33/13 A3002 RMK A01 T03300134  RH  031%=      5-min Rain = 0
KTAS 141605Z 23009KT 33/14 A3002 RMK A01 T03300143  RH  032%=      5-min Rain = 0
KTAS 141606Z 23010KT 33/14 A3002 RMK A01 T03300140  RH  032%=      5-min Rain = 0
KTAS 141607Z 22011KT 33/14 A3002 RMK A01 T03290140  RH  032%=      5-min Rain = 0
KTAS 141608Z 22009KT 33/14 A3002 RMK A01 T03320142  RH  032%=      5-min Rain = 0
KTAS 141609Z 22011KT 34/14 A3002 RMK A01 T03360138  RH  030%=      5-min Rain = 0
KTAS 141610Z 21009KT 34/14 A3002 RMK A01 T03400138  RH  030%=      5-min Rain = 0
KTAS 141611Z 22011KT 35/14 A3002 RMK A01 T03450136  RH  028%=      5-min Rain = 0
KTAS 141612Z 22012KT 35/14 A3002 RMK A01 T03460135  RH  028%=      5-min Rain = 0
KTAS 141613Z 22012KT 35/14 A3002 RMK A01 T03460135  RH  028%=      5-min Rain = 0
KTAS 141614Z 22012KT 35/14 A3002 RMK A01 T03460135  RH  028%=      5-min Rain = 0
KTAS 141615Z 22012KT 35/13 A3002 RMK A01 T03450134  RH  028%=      5-min Rain = 0
KTAS 141616Z 21011G16KT 35/14 A3002 RMK A01 T03450135  RH  028%=      5-min Rain = 0
KTAS 141617Z 22012KT 34/14 A3002 RMK A01 T03420135  RH  029%=      5-min Rain = 0
KTAS 141618Z 22011KT 34/14 A3002 RMK A01 T03420136  RH  029%=      5-min Rain = 0
KTAS 141619Z 22010KT 34/14 A3002 RMK A01 T03430136  RH  029%=      5-min Rain = 0
KTAS 141620Z 22011KT 34/14 A3002 RMK A01 T03440136  RH  028%=      5-min Rain = 0
KTAS 141621Z 22011KT 35/14 A3002 RMK A01 T03460137  RH  028%=      5-min Rain = 0
KTAS 141622Z 21011KT 35/14 A3002 RMK A01 T03460137  RH  028%=      5-min Rain = 0
KTAS 141623Z 22013KT 35/14 A3002 RMK A01 T03510137  RH  028%=      5-min Rain = 0
KTAS 141624Z 22014KT 35/14 A3002 RMK A01 T03510138  RH  028%=      5-min Rain = 0
KTAS 141625Z 22010KT 35/14 A3002 RMK A01 T03490137  RH  028%=      5-min Rain = 0
KTAS 141626Z 22010KT 35/14 A3002 RMK A01 T03510135  RH  027%=      5-min Rain = 0
KTAS 141627Z 21009KT 35/14 A3002 RMK A01 T03520135  RH  027%=      5-min Rain = 0
KTAS 141628Z 23011KT 35/14 A3002 RMK A01 T03540139  RH  028%=      5-min Rain = 0
KTAS 141629Z 22009KT 35/14 A3002 RMK A01 T03540139  RH  028%=      5-min Rain = 0
KTAS 141630Z 20011KT 36/14 A3002 RMK A01 T03550136  RH  027%=      5-min Rain = 0
KTAS 141631Z 22010KT 35/14 A3002 RMK A01 T03530138  RH  028%=      5-min Rain = 0
KTAS 141632Z 23008KT 35/14 A3002 RMK A01 T03530140  RH  028%=      5-min Rain = 0
KTAS 141633Z 22011KT 35/14 A3002 RMK A01 T03540142  RH  028%=      5-min Rain = 0
KTAS 141634Z 21010KT 35/14 A3002 RMK A01 T03540137  RH  027%=      5-min Rain = 0
KTAS 141635Z 21012KT 36/14 A3002 RMK A01 T03560139  RH  027%=      5-min Rain = 0
KTAS 141636Z 21012KT 36/14 A3002 RMK A01 T03580137  RH  027%=      5-min Rain = 0
KTAS 141637Z 21011KT 36/14 A3002 RMK A01 T03580135  RH  026%=      5-min Rain = 0
KTAS 141638Z 22010KT 36/14 A3002 RMK A01 T03600135  RH  026%=      5-min Rain = 0
KTAS 141639Z 21010KT 36/13 A3002 RMK A01 T03600134  RH  026%=      5-min Rain = 0
KTAS 141640Z 23011KT 36/14 A3002 RMK A01 T03590136  RH  026%=      5-min Rain = 0
KTAS 141641Z 23009KT 36/14 A3002 RMK A01 T03590140  RH  027%=      5-min Rain = 0
KTAS 141642Z 20010KT 36/14 A3002 RMK A01 T03600139  RH  027%=      5-min Rain = 0
KTAS 141643Z 21007KT 36/14 A3002 RMK A01 T03600137  RH  026%=      5-min Rain = 0
KTAS 141644Z 22008KT 36/14 A3002 RMK A01 T03620140  RH  027%=      5-min Rain = 0
KTAS 141645Z 20010KT 36/14 A3002 RMK A01 T03620138  RH  026%=      5-min Rain = 0
KTAS 141646Z 20008KT 36/14 A3002 RMK A01 T03580137  RH  027%=      5-min Rain = 0
KTAS 141647Z 21008KT 35/14 A3002 RMK A01 T03540139  RH  028%=      5-min Rain = 0
KTAS 141648Z 21010KT 35/14 A3002 RMK A01 T03540138  RH  027%=      5-min Rain = 0
KTAS 141649Z 21008KT 36/14 A3002 RMK A01 T03550138  RH  027%=      5-min Rain = 0
KTAS 141650Z 22008KT 36/14 A3002 RMK A01 T03560141  RH  028%=      5-min Rain = 0
KTAS 141651Z 22009KT 36/15 A3002 RMK A01 T03610145  RH  028%=      5-min Rain = 0
KTAS 141652Z 23009KT 37/13 A3002 RMK A01 T03650134  RH  025%=      5-min Rain = 0
KTAS 141653Z 22010KT 37/13 A3002 RMK A01 T03660133  RH  025%=      5-min Rain = 0
KTAS 141654Z 23010KT 37/14 A3002 RMK A01 T03690136  RH  025%=      5-min Rain = 0
KTAS 141655Z 22010KT 37/13 A3002 RMK A01 T03690132  RH  024%=      5-min Rain = 0
KTAS 141656Z 22010KT 37/13 A3002 RMK A01 T03670134  RH  025%=      5-min Rain = 0
KTAS 141657Z 22010KT 37/13 A3002 RMK A01 T03670133  RH  025%=      5-min Rain = 0
KTAS 141658Z 22010KT 37/14 A3002 RMK A01 T03690138  RH  025%=      5-min Rain = 0
KTAS 141659Z 22010KT 37/13 A3002 RMK A01 T03700134  RH  024%=      5-min Rain = 0
KTAS 141700Z 22009KT 37/13 A3002 RMK A01 T03700129  RH  024%=      5-min Rain = 0
KTAS 141701Z 21008KT 37/13 A3002 RMK A01 T03710133  RH  024%=      5-min Rain = 0
KTAS 141702Z 22012KT 38/13 A3002 RMK A01 T03750133  RH  024%=      5-min Rain = 0
KTAS 141703Z 23010KT 38/13 A3002 RMK A01 T03770133  RH  023%=      5-min Rain = 0
KTAS 141704Z 22011KT 38/13 A3002 RMK A01 T03790131  RH  023%=      5-min Rain = 0
KTAS 141705Z 22010KT 38/14 A3002 RMK A01 T03810135  RH  023%=      5-min Rain = 0
KTAS 141706Z 22012KT 38/13 A3002 RMK A01 T03810131  RH  023%=      5-min Rain = 0
KTAS 141707Z 22011KT 38/13 A3002 RMK A01 T03770129  RH  023%=      5-min Rain = 0
KTAS 141708Z 22009KT 38/13 A3002 RMK A01 T03760129  RH  023%=      5-min Rain = 0
KTAS 141709Z 23011KT 38/13 A3002 RMK A01 T03760132  RH  023%=      5-min Rain = 0
KTAS 141710Z 26008KT 38/13 A3002 RMK A01 T03780129  RH  023%=      5-min Rain = 0
KTAS 141711Z 25008KT 38/12 A3002 RMK A01 T03770120  RH  022%=      5-min Rain = 0
KTAS 141712Z 24008KT 38/12 A3002 RMK A01 T03760116  RH  021%=      5-min Rain = 0
KTAS 141713Z 24008KT 38/12 A3002 RMK A01 T03770116  RH  021%=      5-min Rain = 0
KTAS 141714Z 25009KT 38/12 A3002 RMK A01 T03770117  RH  021%=      5-min Rain = 0
KTAS 141715Z 26009G14KT 37/12 A3002 RMK A01 T03710122  RH  022%=      5-min Rain = 0
KTAS 141716Z 25011KT 37/13 A3002 RMK A01 T03710126  RH  023%=      5-min Rain = 0
KTAS 141717Z 24010KT 37/12 A3002 RMK A01 T03720123  RH  023%=      5-min Rain = 0
KTAS 141718Z 23011KT 37/12 A3002 RMK A01 T03720123  RH  022%=      5-min Rain = 0
KTAS 141719Z 23009KT 37/12 A3002 RMK A01 T03710121  RH  022%=      5-min Rain = 0
KTAS 141720Z 23009KT 37/12 A3002 RMK A01 T03700119  RH  022%=      5-min Rain = 0
KTAS 141721Z 22008KT 37/12 A3002 RMK A01 T03690122  RH  023%=      5-min Rain = 0
KTAS 141722Z 23008KT 37/13 A3002 RMK A01 T03690126  RH  023%=      5-min Rain = 0
KTAS 141723Z 23009KT 37/13 A3002 RMK A01 T03710129  RH  024%=      5-min Rain = 0
KTAS 141724Z 25008KT 37/12 A3002 RMK A01 T03700123  RH  023%=      5-min Rain = 0
KTAS 141725Z 26007KT 37/12 A3002 RMK A01 T03660121  RH  023%=      5-min Rain = 0
KTAS 141726Z 24010KT 37/13 A3002 RMK A01 T03660126  RH  024%=      5-min Rain = 0
KTAS 141727Z 23007KT 37/13 A3002 RMK A01 T03650126  RH  024%=      5-min Rain = 0
KTAS 141728Z 23008KT 37/13 A3002 RMK A01 T03680128  RH  024%=      5-min Rain = 0
KTAS 141729Z 22007KT 37/12 A3002 RMK A01 T03680121  RH  023%=      5-min Rain = 0
KTAS 141730Z 22007KT 37/12 A3002 RMK A01 T03660119  RH  023%=      5-min Rain = 0
KTAS 141731Z 22010KT 37/13 A3002 RMK A01 T03650126  RH  024%=      5-min Rain = 0
KTAS 141732Z 22010KT 37/13 A3002 RMK A01 T03660126  RH  024%=      5-min Rain = 0
KTAS 141733Z 22010KT 37/12 A3002 RMK A01 T03650124  RH  024%=      5-min Rain = 0
KTAS 141734Z 23009KT 36/12 A3002 RMK A01 T03640124  RH  024%=      5-min Rain = 0
KTAS 141735Z 23009KT 37/12 A3002 RMK A01 T03660124  RH  023%=      5-min Rain = 0
KTAS 141736Z 23009KT 37/13 A3002 RMK A01 T03650125  RH  024%=      5-min Rain = 0
KTAS 141737Z 23009KT 37/13 A3001 RMK A01 T03670127  RH  024%=      5-min Rain = 0
KTAS 141738Z 23010KT 37/13 A3001 RMK A01 T03700126  RH  023%=      5-min Rain = 0
KTAS 141739Z 23009KT 37/13 A3001 RMK A01 T03710128  RH  023%=      5-min Rain = 0
KTAS 141740Z 23010KT 37/13 A3001 RMK A01 T03710128  RH  023%=      5-min Rain = 0
KTAS 141741Z 22009KT 37/13 A3001 RMK A01 T03680127  RH  024%=      5-min Rain = 0
KTAS 141742Z 23011KT 37/13 A3001 RMK A01 T03660126  RH  024%=      5-min Rain = 0
KTAS 141743Z 23008KT 37/12 A3001 RMK A01 T03660122  RH  023%=      5-min Rain = 0
KTAS 141744Z 22008KT 37/12 A3001 RMK A01 T03670122  RH  023%=      5-min Rain = 0
KTAS 141745Z 21007KT 37/12 A3001 RMK A01 T03660122  RH  023%=      5-min Rain = 0
KTAS 141746Z 22008KT 37/12 A3001 RMK A01 T03660123  RH  023%=      5-min Rain = 0
KTAS 141747Z 22008KT 37/12 A3001 RMK A01 T03660122  RH  023%=      5-min Rain = 0
KTAS 141748Z 21008KT 36/12 A3001 RMK A01 T03640121  RH  023%=      5-min Rain = 0
KTAS 141749Z 24006KT 36/12 A3001 RMK A01 T03640124  RH  024%=      5-min Rain = 0
KTAS 141750Z 25006KT 37/13 A3001 RMK A01 T03670128  RH  024%=      5-min Rain = 0
KTAS 141751Z 24007KT 37/13 A3001 RMK A01 T03690128  RH  024%=      5-min Rain = 0
KTAS 141752Z 25006KT 37/13 A3001 RMK A01 T03680126  RH  023%=      5-min Rain = 0
KTAS 141753Z 27004KT 37/13 A3001 RMK A01 T03680127  RH  024%=      5-min Rain = 0
KTAS 141754Z 27006KT 37/12 A3001 RMK A01 T03690119  RH  022%=      5-min Rain = 0
KTAS 141755Z 26005KT 37/11 A3001 RMK A01 T03670112  RH  021%=      5-min Rain = 0
KTAS 141756Z 26004KT 37/12 A3001 RMK A01 T03680118  RH  022%=      5-min Rain = 0
KTAS 141757Z 28005KT 37/12 A3001 RMK A01 T03680122  RH  023%=      5-min Rain = 0
KTAS 141758Z 26006KT 37/13 A3001 RMK A01 T03710127  RH  023%=      5-min Rain = 0
KTAS 141759Z 26006KT 37/13 A3001 RMK A01 T03720127  RH  023%=      5-min Rain = 0
KTAS 141800Z 25005KT 37/13 A3001 RMK A01 T03740128  RH  023%=      5-min Rain = 0
KTAS 141801Z 25006KT 38/12 A3001 RMK A01 T03760119  RH  021%=      5-min Rain = 0
KTAS 141802Z 27007KT 38/12 A3001 RMK A01 T03790123  RH  022%=      5-min Rain = 0
KTAS 141803Z 26005KT 38/11 A3001 RMK A01 T03810114  RH  020%=      5-min Rain = 0
KTAS 141804Z 25005KT 38/11 A3001 RMK A01 T03820112  RH  020%=      5-min Rain = 0
KTAS 141805Z 27006KT 39/12 A3001 RMK A01 T03850115  RH  020%=      5-min Rain = 0
KTAS 141806Z 28005KT 39/11 A3001 RMK A01 T03880110  RH  019%=      5-min Rain = 0
KTAS 141807Z 27006KT 39/12 A3001 RMK A01 T03930115  RH  019%=      5-min Rain = 0
KTAS 141808Z 28007KT 39/11 A3001 RMK A01 T03930114  RH  019%=      5-min Rain = 0
KTAS 141809Z 25006KT 40/11 A3001 RMK A01 T03950113  RH  019%=      5-min Rain = 0
KTAS 141810Z 26006KT 39/11 A30 RMK A01 T03940112  RH  019%=      5-min Rain = 0
KTAS 141811Z 25006KT 39/11 A30 RMK A01 T03930111  RH  019%=      5-min Rain = 0
KTAS 141812Z 26007KT 39/11 A30 RMK A01 T03910111  RH  019%=      5-min Rain = 0
KTAS 141813Z 29006KT 39/10 A30 RMK A01 T03920102  RH  018%=      5-min Rain = 0
KTAS 141814Z 26005KT 39/10 A30 RMK A01 T03900100  RH  018%=      5-min Rain = 0
KTAS 141815Z 25006KT 39/10 A30 RMK A01 T03910104  RH  018%=      5-min Rain = 0
KTAS 141816Z 25008KT 39/12 A30 RMK A01 T03920116  RH  019%=      5-min Rain = 0
KTAS 141817Z 25009KT 39/12 A30 RMK A01 T03920119  RH  020%=      5-min Rain = 0
KTAS 141818Z 25009KT 40/12 A30 RMK A01 T03960116  RH  019%=      5-min Rain = 0
KTAS 141819Z 26008KT 40/11 A30 RMK A01 T03960113  RH  019%=      5-min Rain = 0
KTAS 141820Z 26008KT 39/11 A30 RMK A01 T03940113  RH  019%=      5-min Rain = 0
KTAS 141821Z 26008KT 39/11 A30 RMK A01 T03930111  RH  019%=      5-min Rain = 0
KTAS 141822Z 25007KT 39/11 A30 RMK A01 T03890108  RH  019%=      5-min Rain = 0
KTAS 141823Z 25009KT 39/11 A30 RMK A01 T03890109  RH  019%=      5-min Rain = 0
KTAS 141824Z 26008KT 39/11 A30 RMK A01 T03900111  RH  019%=      5-min Rain = 0
KTAS 141825Z 26006KT 39/11 A30 RMK A01 T03910107  RH  018%=      5-min Rain = 0
KTAS 141826Z 26007KT 39/11 A30 RMK A01 T03910105  RH  018%=      5-min Rain = 0
KTAS 141827Z 24010KT 39/11 A30 RMK A01 T03940108  RH  018%=      5-min Rain = 0
KTAS 141828Z 25009KT 40/11 A30 RMK A01 T03980105  RH  017%=      5-min Rain = 0
KTAS 141829Z 26006KT 40/10 A30 RMK A01 T03960102  RH  017%=      5-min Rain = 0
KTAS 141830Z 23010KT 39/11 A30 RMK A01 T03930105  RH  018%=      5-min Rain = 0
KTAS 141831Z 23009KT 39/11 A30 RMK A01 T03910107  RH  018%=      5-min Rain = 0
KTAS 141832Z 23011KT 39/10 A30 RMK A01 T03910102  RH  018%=      5-min Rain = 0
KTAS 141833Z 24011KT 39/10 A30 RMK A01 T03910103  RH  018%=      5-min Rain = 0
KTAS 141834Z 23008KT 39/10 A30 RMK A01 T03920097  RH  017%=      5-min Rain = 0
KTAS 141835Z 24009KT 39/10 A30 RMK A01 T03930098  RH  017%=      5-min Rain = 0
KTAS 141836Z 25009KT 39/10 A30 RMK A01 T03930099  RH  017%=      5-min Rain = 0
KTAS 141837Z 26006KT 39/10 A30 RMK A01 T03910096  RH  017%=      5-min Rain = 0
KTAS 141838Z 24007KT 39/10 A30 RMK A01 T03910097  RH  017%=      5-min Rain = 0
KTAS 141839Z 27007KT 40/10 A30 RMK A01 T03950097  RH  017%=      5-min Rain = 0
KTAS 141840Z 27004KT 40/10 A30 RMK A01 T03970096  RH  016%=      5-min Rain = 0
KTAS 141841Z 25009KT 40/10 A30 RMK A01 T03980101  RH  017%=      5-min Rain = 0
KTAS 141842Z 25012KT 40/10 A30 RMK A01 T03990098  RH  016%=      5-min Rain = 0
KTAS 141843Z 25010KT 40/10 A2999 RMK A01 T03960097  RH  017%=      5-min Rain = 0
KTAS 141844Z 25009KT 40/10 A2999 RMK A01 T03950095  RH  017%=      5-min Rain = 0
KTAS 141845Z 23008KT 40/10 A2999 RMK A01 T03990096  RH  016%=      5-min Rain = 0
KTAS 141846Z 25008KT 40/10 A2999 RMK A01 T04000098  RH  016%=      5-min Rain = 0
KTAS 141847Z 24008KT 40/10 A2999 RMK A01 T03990104  RH  017%=      5-min Rain = 0
KTAS 141848Z 23009KT 41/10 A2999 RMK A01 T04060103  RH  016%=      5-min Rain = 0
KTAS 141849Z 23009KT 41/10 A2999 RMK A01 T04070095  RH  016%=      5-min Rain = 0
KTAS 141850Z 24008KT 41/10 A2999 RMK A01 T04060097  RH  016%=      5-min Rain = 0
KTAS 141851Z 25011KT 41/10 A2999 RMK A01 T04060095  RH  016%=      5-min Rain = 0
KTAS 141852Z 26010KT 40/09 A2999 RMK A01 T04040088  RH  015%=      5-min Rain = 0
KTAS 141853Z 25006KT 41/09 A2999 RMK A01 T04050092  RH  015%=      5-min Rain = 0
KTAS 141854Z 26007KT 41/09 A2999 RMK A01 T04070089  RH  015%=      5-min Rain = 0
KTAS 141855Z 27007KT 40/09 A2999 RMK A01 T04040092  RH  015%=      5-min Rain = 0
KTAS 141856Z 24007KT 41/09 A2999 RMK A01 T04060092  RH  015%=      5-min Rain = 0
KTAS 141857Z 25009KT 40/09 A2999 RMK A01 T04030090  RH  015%=      5-min Rain = 0
KTAS 141858Z 27009KT 40/09 A2999 RMK A01 T04030087  RH  015%=      5-min Rain = 0
KTAS 141859Z 27007KT 40/09 A2999 RMK A01 T04020086  RH  015%=      5-min Rain = 0
KTAS 141900Z 29006KT 40/08 A2999 RMK A01 T04020082  RH  015%=      5-min Rain = 0
KTAS 141901Z 25007KT 40/09 A2999 RMK A01 T04030091  RH  015%=      5-min Rain = 0
KTAS 141902Z 27005KT 41/09 A30 RMK A01 T04070090  RH  015%=      5-min Rain = 0
KTAS 141903Z 27007KT 41/10 A30 RMK A01 T04080095  RH  015%=      5-min Rain = 0
KTAS 141904Z 27011KT 41/09 A30 RMK A01 T04070093  RH  015%=      5-min Rain = 0
KTAS 141905Z 25007G12KT 40/10 A30 RMK A01 T04030100  RH  016%=      5-min Rain = 0
KTAS 141906Z 24013KT 40/10 A30 RMK A01 T03980101  RH  017%=      5-min Rain = 0
KTAS 141907Z 25011KT 39/10 A30 RMK A01 T03940100  RH  017%=      5-min Rain = 0
KTAS 141908Z 25009KT 39/10 A30 RMK A01 T03920102  RH  018%=      5-min Rain = 0
KTAS 141909Z 23010KT 39/09 A2999 RMK A01 T03920093  RH  017%=      5-min Rain = 0
KTAS 141910Z 24010KT 39/09 A2999 RMK A01 T03920089  RH  016%=      5-min Rain = 0
KTAS 141911Z 23010KT 39/09 A2999 RMK A01 T03910092  RH  017%=      5-min Rain = 0
KTAS 141912Z 23010KT 39/09 A2999 RMK A01 T03930091  RH  016%=      5-min Rain = 0
KTAS 141913Z 23010KT 39/09 A2999 RMK A01 T03940087  RH  016%=      5-min Rain = 0
KTAS 141914Z 23008KT 39/09 A2999 RMK A01 T03930090  RH  016%=      5-min Rain = 0
KTAS 141915Z 23010KT 39/10 A2999 RMK A01 T03920095  RH  017%=      5-min Rain = 0
KTAS 141916Z 24011KT 39/10 A2999 RMK A01 T03910097  RH  017%=      5-min Rain = 0
KTAS 141917Z 22008KT 39/10 A2999 RMK A01 T03890101  RH  018%=      5-min Rain = 0
KTAS 141918Z 23009KT 39/10 A2999 RMK A01 T03920104  RH  018%=      5-min Rain = 0
KTAS 141919Z 23010KT 39/10 A2999 RMK A01 T03910102  RH  018%=      5-min Rain = 0
KTAS 141920Z 24009KT 39/10 A2999 RMK A01 T03890099  RH  017%=      5-min Rain = 0
KTAS 141921Z 24011KT 39/10 A2999 RMK A01 T03880099  RH  018%=      5-min Rain = 0
KTAS 141922Z 24012KT 39/09 A2999 RMK A01 T03870089  RH  017%=      5-min Rain = 0
KTAS 141923Z 24010KT 39/09 A2999 RMK A01 T03860089  RH  017%=      5-min Rain = 0
KTAS 141924Z 24010KT 39/09 A2999 RMK A01 T03870092  RH  017%=      5-min Rain = 0
KTAS 141925Z 25011KT 39/09 A2999 RMK A01 T03870093  RH  017%=      5-min Rain = 0
KTAS 141926Z 25010KT 38/09 A2999 RMK A01 T03840093  RH  017%=      5-min Rain = 0
KTAS 141927Z 25008KT 38/09 A2999 RMK A01 T03830089  RH  017%=      5-min Rain = 0
KTAS 141928Z 25007KT 38/09 A2999 RMK A01 T03840088  RH  017%=      5-min Rain = 0
KTAS 141929Z 27008KT 39/09 A2999 RMK A01 T03850090  RH  017%=      5-min Rain = 0
KTAS 141930Z 26008KT 38/09 A2999 RMK A01 T03840090  RH  017%=      5-min Rain = 0
KTAS 141931Z 26009KT 38/09 A2999 RMK A01 T03830091  RH  017%=      5-min Rain = 0
KTAS 141932Z 25010KT 38/09 A2999 RMK A01 T03820088  RH  017%=      5-min Rain = 0
KTAS 141933Z 25009KT 38/09 A2999 RMK A01 T03820089  RH  017%=      5-min Rain = 0
KTAS 141934Z 25010KT 38/09 A2999 RMK A01 T03830086  RH  017%=      5-min Rain = 0
KTAS 141935Z 24009KT 38/09 A2999 RMK A01 T03830087  RH  017%=      5-min Rain = 0
KTAS 141936Z 25009KT 38/08 A2999 RMK A01 T03830082  RH  016%=      5-min Rain = 0
KTAS 141937Z 26007KT 38/09 A2999 RMK A01 T03840088  RH  017%=      5-min Rain = 0
KTAS 141938Z 26008KT 38/10 A2999 RMK A01 T03840097  RH  018%=      5-min Rain = 0
KTAS 141939Z 27007KT 38/10 A2999 RMK A01 T03830098  RH  018%=      5-min Rain = 0
KTAS 141940Z 26008KT 38/10 A2999 RMK A01 T03840097  RH  018%=      5-min Rain = 0
KTAS 141941Z 26009KT 38/09 A2998 RMK A01 T03840092  RH  017%=      5-min Rain = 0
KTAS 141942Z 25009KT 38/10 A2998 RMK A01 T03840098  RH  018%=      5-min Rain = 0
KTAS 141943Z 25010KT 38/10 A2998 RMK A01 T03830096  RH  018%=      5-min Rain = 0
KTAS 141944Z 24011KT 38/09 A2998 RMK A01 T03820092  RH  017%=      5-min Rain = 0
KTAS 141945Z 24010KT 38/09 A2998 RMK A01 T03840093  RH  017%=      5-min Rain = 0
KTAS 141946Z 25009KT 38/09 A2998 RMK A01 T03840094  RH  017%=      5-min Rain = 0
KTAS 141947Z 25007KT 39/10 A2998 RMK A01 T03850098  RH  018%=      5-min Rain = 0
KTAS 141948Z 24008KT 39/10 A2998 RMK A01 T03910096  RH  017%=      5-min Rain = 0
KTAS 141949Z 25008KT 39/10 A2998 RMK A01 T03940096  RH  017%=      5-min Rain = 0
KTAS 141950Z 24008KT 40/10 A2998 RMK A01 T03970099  RH  017%=      5-min Rain = 0
KTAS 141951Z 23012KT 40/10 A2998 RMK A01 T04020096  RH  016%=      5-min Rain = 0
KTAS 141952Z 24009KT 40/09 A2998 RMK A01 T04030093  RH  016%=      5-min Rain = 0
KTAS 141953Z 24010KT 41/09 A2998 RMK A01 T04050090  RH  015%=      5-min Rain = 0
KTAS 141954Z 24012KT 40/10 A2998 RMK A01 T04030096  RH  016%=      5-min Rain = 0
KTAS 141955Z 26011KT 40/10 A2998 RMK A01 T04000097  RH  016%=      5-min Rain = 0
KTAS 141956Z 25009KT 40/10 A2998 RMK A01 T04000095  RH  016%=      5-min Rain = 0
KTAS 141957Z 26010KT 40/09 A2998 RMK A01 T04010086  RH  015%=      5-min Rain = 0
KTAS 141958Z 25008KT 40/09 A2998 RMK A01 T04010088  RH  015%=      5-min Rain = 0
KTAS 141959Z 23010KT 40/09 A2998 RMK A01 T04040088  RH  015%=      5-min Rain = 0
KTAS 142000Z 23011KT 40/09 A2998 RMK A01 T04030087  RH  015%=      5-min Rain = 0
KTAS 142001Z 23010KT 40/09 A2998 RMK A01 T03990085  RH  015%=      5-min Rain = 0
KTAS 142002Z 24010KT 40/09 A2997 RMK A01 T04000085  RH  015%=      5-min Rain = 0
KTAS 142003Z 24010KT 40/09 A2997 RMK A01 T03990087  RH  015%=      5-min Rain = 0
KTAS 142004Z 26009KT 40/09 A2997 RMK A01 T03990086  RH  015%=      5-min Rain = 0
KTAS 142005Z 27008KT 40/08 A2997 RMK A01 T03990082  RH  015%=      5-min Rain = 0
KTAS 142006Z 26007KT 40/08 A2997 RMK A01 T04010084  RH  015%=      5-min Rain = 0
KTAS 142007Z 27008KT 40/09 A2997 RMK A01 T04020085  RH  015%=      5-min Rain = 0
KTAS 142008Z 27007KT 40/09 A2997 RMK A01 T04030088  RH  015%=      5-min Rain = 0
KTAS 142009Z 24008KT 40/09 A2997 RMK A01 T04030094  RH  016%=      5-min Rain = 0
KTAS 142010Z 25009KT 40/10 A2997 RMK A01 T04000098  RH  016%=      5-min Rain = 0
KTAS 142011Z 24007KT 40/10 A2997 RMK A01 T03960100  RH  017%=      5-min Rain = 0
KTAS 142012Z 23007KT 39/09 A2997 RMK A01 T03930093  RH  016%=      5-min Rain = 0
KTAS 142013Z 22007KT 39/09 A2997 RMK A01 T03900087  RH  016%=      5-min Rain = 0
KTAS 142014Z 23010KT 39/09 A2997 RMK A01 T03900091  RH  016%=      5-min Rain = 0
KTAS 142015Z 23010KT 39/09 A2997 RMK A01 T03910088  RH  016%=      5-min Rain = 0
KTAS 142016Z 23007KT 39/09 A2997 RMK A01 T03910085  RH  016%=      5-min Rain = 0
KTAS 142017Z 24006KT 39/09 A2997 RMK A01 T03910085  RH  016%=      5-min Rain = 0
KTAS 142018Z 23007KT 39/08 A2997 RMK A01 T03920083  RH  016%=      5-min Rain = 0
KTAS 142019Z 23006KT 39/08 A2997 RMK A01 T03940081  RH  015%=      5-min Rain = 0
KTAS 142020Z 23007KT 39/08 A2997 RMK A01 T03940079  RH  015%=      5-min Rain = 0
KTAS 142021Z 22007KT 39/08 A2996 RMK A01 T03940080  RH  015%=      5-min Rain = 0
KTAS 142022Z 24009KT 40/08 A2996 RMK A01 T03960084  RH  015%=      5-min Rain = 0
KTAS 142023Z 25009KT 40/08 A2996 RMK A01 T03960080  RH  015%=      5-min Rain = 0
KTAS 142024Z 24008KT 39/08 A2996 RMK A01 T03930077  RH  015%=      5-min Rain = 0
KTAS 142025Z 21008KT 39/08 A2996 RMK A01 T03940079  RH  015%=      5-min Rain = 0
KTAS 142026Z 22007KT 40/08 A2996 RMK A01 T03950076  RH  015%=      5-min Rain = 0
KTAS 142027Z 24006KT 40/08 A2996 RMK A01 T03950078  RH  015%=      5-min Rain = 0
KTAS 142028Z 22006KT 40/08 A2996 RMK A01 T03980080  RH  015%=      5-min Rain = 0
KTAS 142029Z 22008KT 40/09 A2996 RMK A01 T04000086  RH  015%=      5-min Rain = 0
KTAS 142030Z 25010KT 41/09 A2996 RMK A01 T04050091  RH  015%=      5-min Rain = 0
KTAS 142031Z 23010KT 41/09 A2996 RMK A01 T04060087  RH  015%=      5-min Rain = 0
KTAS 142032Z 23009KT 41/09 A2996 RMK A01 T04050088  RH  015%=      5-min Rain = 0
KTAS 142033Z 22009KT 41/09 A2996 RMK A01 T04080088  RH  015%=      5-min Rain = 0
KTAS 142034Z 22007KT 41/08 A2996 RMK A01 T04070082  RH  014%=      5-min Rain = 0
KTAS 142035Z 23008KT 41/09 A2996 RMK A01 T04070085  RH  015%=      5-min Rain = 0
KTAS 142036Z 22010KT 41/08 A2996 RMK A01 T04050084  RH  014%=      5-min Rain = 0
KTAS 142037Z 22009KT 40/08 A2995 RMK A01 T04020079  RH  014%=      5-min Rain = 0
KTAS 142038Z 22009KT 40/08 A2995 RMK A01 T04000081  RH  015%=      5-min Rain = 0
KTAS 142039Z 22009KT 40/08 A2995 RMK A01 T04020078  RH  014%=      5-min Rain = 0
KTAS 142040Z 21010KT 40/09 A2995 RMK A01 T04030086  RH  015%=      5-min Rain = 0
KTAS 142041Z 22011KT 40/09 A2995 RMK A01 T04030088  RH  015%=      5-min Rain = 0
KTAS 142042Z 21012KT 40/09 A2995 RMK A01 T04020089  RH  015%=      5-min Rain = 0
KTAS 142043Z 20011KT 40/08 A2995 RMK A01 T04010079  RH  014%=      5-min Rain = 0
KTAS 142044Z 21008KT 40/08 A2995 RMK A01 T04020075  RH  014%=      5-min Rain = 0
KTAS 142045Z 22009KT 41/09 A2995 RMK A01 T04060085  RH  015%=      5-min Rain = 0
KTAS 142046Z 25011KT 41/08 A2995 RMK A01 T04070081  RH  014%=      5-min Rain = 0
KTAS 142047Z 23011KT 41/09 A2995 RMK A01 T04060086  RH  015%=      5-min Rain = 0
KTAS 142048Z 22012KT 41/09 A2995 RMK A01 T04080087  RH  015%=      5-min Rain = 0
KTAS 142049Z 22012KT 41/09 A2995 RMK A01 T04090085  RH  014%=      5-min Rain = 0
KTAS 142050Z 22014KT 41/09 A2995 RMK A01 T04080086  RH  014%=      5-min Rain = 0
KTAS 142051Z 22013KT 41/08 A2995 RMK A01 T04070084  RH  014%=      5-min Rain = 0
KTAS 142052Z 23013KT 41/08 A2995 RMK A01 T04070081  RH  014%=      5-min Rain = 0
KTAS 142053Z 22011KT 41/08 A2995 RMK A01 T04060082  RH  014%=      5-min Rain = 0
KTAS 142054Z 22009KT 41/09 A2995 RMK A01 T04080085  RH  014%=      5-min Rain = 0
KTAS 142055Z 22010KT 41/08 A2995 RMK A01 T04120081  RH  014%=      5-min Rain = 0
KTAS 142056Z 22010KT 41/08 A2995 RMK A01 T04110082  RH  014%=      5-min Rain = 0
KTAS 142057Z 22011KT 41/08 A2995 RMK A01 T04090084  RH  014%=      5-min Rain = 0
KTAS 142058Z 23013KT 41/09 A2994 RMK A01 T04100087  RH  014%=      5-min Rain = 0
KTAS 142059Z 23008KT 41/09 A2995 RMK A01 T04120086  RH  014%=      5-min Rain = 0
KTAS 142100Z 24009KT 42/09 A2995 RMK A01 T04150086  RH  014%=      5-min Rain = 0
KTAS 142101Z 24012KT 42/08 A2995 RMK A01 T04170084  RH  014%=      5-min Rain = 0
KTAS 142102Z 23010KT 41/08 A2994 RMK A01 T04110077  RH  013%=      5-min Rain = 0
KTAS 142103Z 23009KT 41/08 A2994 RMK A01 T04080077  RH  014%=      5-min Rain = 0
KTAS 142104Z 22010KT 41/08 A2994 RMK A01 T04090081  RH  014%=      5-min Rain = 0
KTAS 142105Z 22013KT 41/08 A2994 RMK A01 T04090081  RH  014%=      5-min Rain = 0
KTAS 142106Z 22013KT 41/08 A2994 RMK A01 T04080078  RH  014%=      5-min Rain = 0
KTAS 142107Z 22011KT 41/08 A2994 RMK A01 T04070075  RH  014%=      5-min Rain = 0
KTAS 142108Z 22009KT 40/07 A2994 RMK A01 T04040073  RH  014%=      5-min Rain = 0
KTAS 142109Z 23008KT 40/08 A2994 RMK A01 T04040076  RH  014%=      5-min Rain = 0
KTAS 142110Z 23007KT 41/08 A2994 RMK A01 T04060077  RH  014%=      5-min Rain = 0
KTAS 142111Z 24008KT 41/08 A2994 RMK A01 T04070078  RH  014%=      5-min Rain = 0
KTAS 142112Z 25007KT 41/07 A2994 RMK A01 T04080072  RH  013%=      5-min Rain = 0
KTAS 142113Z 24007KT 41/07 A2994 RMK A01 T04050070  RH  013%=      5-min Rain = 0
KTAS 142114Z 24010KT 41/07 A2994 RMK A01 T04060074  RH  013%=      5-min Rain = 0
KTAS 142115Z 24011KT 41/08 A2994 RMK A01 T04070077  RH  014%=      5-min Rain = 0
KTAS 142116Z 24009KT 41/08 A2994 RMK A01 T04080077  RH  014%=      5-min Rain = 0
KTAS 142117Z 24006KT 41/08 A2994 RMK A01 T04080078  RH  014%=      5-min Rain = 0
KTAS 142118Z 25009KT 41/08 A2994 RMK A01 T04110082  RH  014%=      5-min Rain = 0
KTAS 142119Z 26011KT 41/09 A2994 RMK A01 T04120087  RH  014%=      5-min Rain = 0
KTAS 142120Z 25011KT 41/09 A2994 RMK A01 T04090085  RH  014%=      5-min Rain = 0
KTAS 142121Z 27011KT 41/08 A2994 RMK A01 T04050081  RH  014%=      5-min Rain = 0
KTAS 142122Z 27009KT 40/08 A2994 RMK A01 T04020080  RH  014%=      5-min Rain = 0
KTAS 142123Z 27007KT 40/08 A2993 RMK A01 T04030078  RH  014%=      5-min Rain = 0
KTAS 142124Z 28010KT 40/08 A2993 RMK A01 T04040076  RH  014%=      5-min Rain = 0
KTAS 142125Z 28008KT 40/08 A2993 RMK A01 T04040076  RH  014%=      5-min Rain = 0
KTAS 142126Z 21013KT 41/09 A2993 RMK A01 T04060086  RH  015%=      5-min Rain = 0
KTAS 142127Z 23012KT 41/09 A2993 RMK A01 T04050092  RH  015%=      5-min Rain = 0
KTAS 142128Z 24011KT 41/09 A2993 RMK A01 T04060090  RH  015%=      5-min Rain = 0
KTAS 142129Z 26010G15KT 41/09 A2993 RMK A01 T04090086  RH  014%=      5-min Rain = 0
KTAS 142130Z 26010KT 41/08 A2993 RMK A01 T04090083  RH  014%=      5-min Rain = 0
KTAS 142131Z 26008KT 41/09 A2993 RMK A01 T04070086  RH  015%=      5-min Rain = 0
KTAS 142132Z 26009KT 41/09 A2993 RMK A01 T04100088  RH  015%=      5-min Rain = 0
KTAS 142133Z 24009KT 41/09 A2993 RMK A01 T04120088  RH  014%=      5-min Rain = 0
KTAS 142134Z 23010KT 41/09 A2993 RMK A01 T04130093  RH  015%=      5-min Rain = 0
KTAS 142135Z 23014KT 41/10 A2993 RMK A01 T04130097  RH  015%=      5-min Rain = 0
KTAS 142136Z 22014KT 41/09 A2993 RMK A01 T04110094  RH  015%=      5-min Rain = 0
KTAS 142137Z 23013KT 41/09 A2993 RMK A01 T04090087  RH  015%=      5-min Rain = 0
KTAS 142138Z 22010KT 41/08 A2993 RMK A01 T04080084  RH  014%=      5-min Rain = 0
KTAS 142139Z 21011KT 41/08 A2993 RMK A01 T04070083  RH  014%=      5-min Rain = 0
KTAS 142140Z 22010KT 41/09 A2993 RMK A01 T04070086  RH  015%=      5-min Rain = 0
KTAS 142141Z 22011G16KT 41/08 A2993 RMK A01 T04060082  RH  014%=      5-min Rain = 0
KTAS 142142Z 22007KT 40/08 A2993 RMK A01 T04020081  RH  014%=      5-min Rain = 0
KTAS 142143Z 23010KT 41/09 A2993 RMK A01 T04050086  RH  015%=      5-min Rain = 0
KTAS 142144Z 22009KT 41/09 A2993 RMK A01 T04080091  RH  015%=      5-min Rain = 0
KTAS 142145Z 23011KT 41/09 A2993 RMK A01 T04110091  RH  015%=      5-min Rain = 0
KTAS 142146Z 23013KT 41/09 A2993 RMK A01 T04100086  RH  014%=      5-min Rain = 0
KTAS 142147Z 21015KT 41/09 A2993 RMK A01 T04080085  RH  014%=      5-min Rain = 0
KTAS 142148Z 22012KT 41/08 A2993 RMK A01 T04050084  RH  014%=      5-min Rain = 0
KTAS 142149Z 22013KT 41/09 A2993 RMK A01 T04050086  RH  015%=      5-min Rain = 0
KTAS 142150Z 23011KT 41/09 A2993 RMK A01 T04080092  RH  015%=      5-min Rain = 0
KTAS 142151Z 22015KT 41/09 A2992 RMK A01 T04090091  RH  015%=      5-min Rain = 0
KTAS 142152Z 22015G20KT 41/09 A2992 RMK A01 T04050093  RH  015%=      5-min Rain = 0
KTAS 142153Z 22016KT 40/09 A2992 RMK A01 T04030091  RH  015%=      5-min Rain = 0
KTAS 142154Z 22017KT 41/09 A2992 RMK A01 T04050089  RH  015%=      5-min Rain = 0
KTAS 142155Z 24011KT 41/09 A2993 RMK A01 T04060091  RH  015%=      5-min Rain = 0
KTAS 142156Z 24008KT 41/09 A2993 RMK A01 T04070093  RH  015%=      5-min Rain = 0
KTAS 142157Z 23010KT 41/09 A2993 RMK A01 T04090090  RH  015%=      5-min Rain = 0
KTAS 142158Z 22011KT 41/09 A2992 RMK A01 T04080088  RH  015%=      5-min Rain = 0
KTAS 142159Z 21012KT 41/09 A2992 RMK A01 T04080085  RH  014%=      5-min Rain = 0
KTAS 142200Z 21012KT 41/08 A2992 RMK A01 T04060084  RH  014%=      5-min Rain = 0
KTAS 142201Z 22015KT 41/09 A2992 RMK A01 T04060086  RH  015%=      5-min Rain = 0
KTAS 142202Z 19014G20KT 41/09 A2992 RMK A01 T04050085  RH  015%=      5-min Rain = 0
KTAS 142203Z 20012KT 41/08 A2992 RMK A01 T04080084  RH  014%=      5-min Rain = 0
KTAS 142204Z 21014KT 41/08 A2992 RMK A01 T04090083  RH  014%=      5-min Rain = 0
KTAS 142205Z 20013KT 41/08 A2992 RMK A01 T04080081  RH  014%=      5-min Rain = 0
KTAS 142206Z 21013KT 41/08 A2992 RMK A01 T04090084  RH  014%=      5-min Rain = 0
KTAS 142207Z 22015KT 41/09 A2992 RMK A01 T04080085  RH  014%=      5-min Rain = 0
KTAS 142208Z 22012KT 41/09 A2992 RMK A01 T04080090  RH  015%=      5-min Rain = 0
KTAS 142209Z 22014KT 41/10 A2992 RMK A01 T04070095  RH  015%=      5-min Rain = 0
KTAS 142210Z 22012G17KT 41/10 A2992 RMK A01 T04050095  RH  016%=      5-min Rain = 0
KTAS 142211Z 22013KT 41/09 A2992 RMK A01 T04060088  RH  015%=      5-min Rain = 0
KTAS 142212Z 23014KT 41/09 A2992 RMK A01 T04060088  RH  015%=      5-min Rain = 0
KTAS 142213Z 23015KT 41/09 A2992 RMK A01 T04060088  RH  015%=      5-min Rain = 0
KTAS 142214Z 22016KT 40/09 A2992 RMK A01 T04040086  RH  015%=      5-min Rain = 0
KTAS 142215Z 23016KT 40/08 A2992 RMK A01 T04010083  RH  015%=      5-min Rain = 0
KTAS 142216Z 22014KT 40/08 A2992 RMK A01 T04010083  RH  015%=      5-min Rain = 0
KTAS 142217Z 22012KT 40/08 A2992 RMK A01 T04010081  RH  015%=      5-min Rain = 0
KTAS 142218Z 23011KT 40/08 A2992 RMK A01 T04010083  RH  015%=      5-min Rain = 0
KTAS 142219Z 23013KT 40/09 A2992 RMK A01 T04020085  RH  015%=      5-min Rain = 0
KTAS 142220Z 23014KT 40/09 A2992 RMK A01 T04010086  RH  015%=      5-min Rain = 0
KTAS 142221Z 22013KT 40/09 A2992 RMK A01 T03990090  RH  016%=      5-min Rain = 0
KTAS 142222Z 22015KT 40/09 A2992 RMK A01 T04010085  RH  015%=      5-min Rain = 0
KTAS 142223Z 22014KT 40/09 A2992 RMK A01 T04000087  RH  015%=      5-min Rain = 0
KTAS 142224Z 22013KT 40/09 A2992 RMK A01 T03990087  RH  015%=      5-min Rain = 0
KTAS 142225Z 22014KT 40/08 A2992 RMK A01 T03990083  RH  015%=      5-min Rain = 0
KTAS 142226Z 21013KT 40/08 A2992 RMK A01 T04000081  RH  015%=      5-min Rain = 0
KTAS 142227Z 23013KT 40/08 A2992 RMK A01 T04000082  RH  015%=      5-min Rain = 0
KTAS 142228Z 24012KT 40/09 A2992 RMK A01 T03990087  RH  015%=      5-min Rain = 0
KTAS 142229Z 24013KT 40/09 A2992 RMK A01 T04010088  RH  015%=      5-min Rain = 0
KTAS 142230Z 23011KT 40/09 A2992 RMK A01 T04000089  RH  015%=      5-min Rain = 0
KTAS 142231Z 24011KT 40/08 A2992 RMK A01 T04000083  RH  015%=      5-min Rain = 0
KTAS 142232Z 25009KT 40/09 A2992 RMK A01 T04000091  RH  016%=      5-min Rain = 0
KTAS 142233Z 24009KT 40/10 A2992 RMK A01 T04020097  RH  016%=      5-min Rain = 0
KTAS 142234Z 24009KT 40/10 A2992 RMK A01 T04020098  RH  016%=      5-min Rain = 0
KTAS 142235Z 24010G17KT 40/10 A2992 RMK A01 T04010095  RH  016%=      5-min Rain = 0
KTAS 142236Z 23016KT 40/09 A2992 RMK A01 T04000086  RH  015%=      5-min Rain = 0
KTAS 142237Z 23015KT 40/08 A2992 RMK A01 T03980082  RH  015%=      5-min Rain = 0
KTAS 142238Z 22015KT 40/08 A2993 RMK A01 T03980080  RH  015%=      5-min Rain = 0
KTAS 142239Z 22013KT 40/08 A2993 RMK A01 T03970080  RH  015%=      5-min Rain = 0
KTAS 142240Z 22011KT 40/08 A2993 RMK A01 T03970082  RH  015%=      5-min Rain = 0
KTAS 142241Z 22014G19KT 40/09 A2992 RMK A01 T03960085  RH  015%=      5-min Rain = 0
KTAS 142242Z 22015KT 40/08 A2993 RMK A01 T03950081  RH  015%=      5-min Rain = 0
KTAS 142243Z 22013KT 40/09 A2993 RMK A01 T03950086  RH  016%=      5-min Rain = 0
KTAS 142244Z 22011KT 40/09 A2993 RMK A01 T03960089  RH  016%=      5-min Rain = 0
KTAS 142245Z 22012KT 40/08 A2993 RMK A01 T03980082  RH  015%=      5-min Rain = 0
KTAS 142246Z 22014KT 40/08 A2993 RMK A01 T03970078  RH  015%=      5-min Rain = 0
KTAS 142247Z 22011KT 40/08 A2993 RMK A01 T03960076  RH  014%=      5-min Rain = 0
KTAS 142248Z 22009KT 40/08 A2993 RMK A01 T03960076  RH  015%=      5-min Rain = 0
KTAS 142249Z 21010G15KT 40/08 A2993 RMK A01 T03980082  RH  015%=      5-min Rain = 0
KTAS 142250Z 21011KT 40/08 A2993 RMK A01 T03980080  RH  015%=      5-min Rain = 0
KTAS 142251Z 21011KT 40/08 A2993 RMK A01 T03980079  RH  015%=      5-min Rain = 0
KTAS 142252Z 22012KT 40/08 A2993 RMK A01 T03990081  RH  015%=      5-min Rain = 0
KTAS 142253Z 21015KT 40/08 A2993 RMK A01 T03990079  RH  015%=      5-min Rain = 0
KTAS 142254Z 22011KT 40/08 A2993 RMK A01 T03980080  RH  015%=      5-min Rain = 0
KTAS 142255Z 22012KT 40/08 A2993 RMK A01 T03980084  RH  015%=      5-min Rain = 0
KTAS 142256Z 22015KT 40/09 A2993 RMK A01 T03980086  RH  015%=      5-min Rain = 0
KTAS 142257Z 23014KT 39/08 A2993 RMK A01 T03940079  RH  015%=      5-min Rain = 0
KTAS 142258Z 23011KT 39/08 A2993 RMK A01 T03920082  RH  015%=      5-min Rain = 0
KTAS 142259Z 23012KT 39/08 A2993 RMK A01 T03940084  RH  015%=      5-min Rain = 0
KTAS 142300Z 23012KT 39/08 A2993 RMK A01 T03940081  RH  015%=      5-min Rain = 0
KTAS 142301Z 23011KT 39/09 A2993 RMK A01 T03940085  RH  016%=      5-min Rain = 0
KTAS 142302Z 23010KT 40/09 A2993 RMK A01 T03950088  RH  016%=      5-min Rain = 0
KTAS 142303Z 22010KT 40/09 A2993 RMK A01 T03960088  RH  016%=      5-min Rain = 0
KTAS 142304Z 22009KT 40/09 A2993 RMK A01 T03990088  RH  015%=      5-min Rain = 0
KTAS 142305Z 22012KT 40/09 A2993 RMK A01 T04000086  RH  015%=      5-min Rain = 0
KTAS 142306Z 23013KT 40/09 A2993 RMK A01 T03970085  RH  015%=      5-min Rain = 0
KTAS 142307Z 23012KT 39/08 A2993 RMK A01 T03940080  RH  015%=      5-min Rain = 0
KTAS 142308Z 23011KT 40/08 A2993 RMK A01 T03950084  RH  015%=      5-min Rain = 0
KTAS 142309Z 23012G17KT 40/08 A2993 RMK A01 T03970083  RH  015%=      5-min Rain = 0
KTAS 142310Z 23011KT 40/07 A2993 RMK A01 T03960074  RH  014%=      5-min Rain = 0
KTAS 142311Z 24010KT 39/08 A2993 RMK A01 T03940076  RH  015%=      5-min Rain = 0
KTAS 142312Z 23009KT 39/08 A2993 RMK A01 T03930084  RH  015%=      5-min Rain = 0
KTAS 142313Z 23009KT 39/09 A2993 RMK A01 T03930085  RH  016%=      5-min Rain = 0
KTAS 142314Z 23009KT 40/08 A2993 RMK A01 T03950078  RH  015%=      5-min Rain = 0
KTAS 142315Z 24007KT 39/07 A2993 RMK A01 T03940073  RH  014%=      5-min Rain = 0
KTAS 142316Z 24009KT 39/07 A2993 RMK A01 T03940073  RH  014%=      5-min Rain = 0
KTAS 142317Z 25009KT 40/08 A2993 RMK A01 T03950075  RH  014%=      5-min Rain = 0
KTAS 142318Z 25009KT 40/07 A2993 RMK A01 T03950074  RH  014%=      5-min Rain = 0
KTAS 142319Z 26008KT 40/07 A2993 RMK A01 T03950073  RH  014%=      5-min Rain = 0
KTAS 142320Z 26005KT 39/07 A2993 RMK A01 T03940073  RH  014%=      5-min Rain = 0
KTAS 142321Z 22008KT 40/08 A2993 RMK A01 T03950078  RH  015%=      5-min Rain = 0
KTAS 142322Z 22008KT 39/08 A2993 RMK A01 T03940080  RH  015%=      5-min Rain = 0
KTAS 142323Z 21009KT 40/08 A2993 RMK A01 T03950081  RH  015%=      5-min Rain = 0
KTAS 142324Z 21008KT 40/08 A2993 RMK A01 T03950078  RH  015%=      5-min Rain = 0
KTAS 142325Z 22007KT 40/08 A2993 RMK A01 T03960076  RH  014%=      5-min Rain = 0
KTAS 142326Z 22010KT 40/07 A2993 RMK A01 T03960074  RH  014%=      5-min Rain = 0
KTAS 142327Z 23008KT 40/08 A2993 RMK A01 T03950075  RH  014%=      5-min Rain = 0
KTAS 142328Z 24009KT 40/08 A2993 RMK A01 T03950076  RH  015%=      5-min Rain = 0
KTAS 142329Z 24007KT 39/08 A2993 RMK A01 T03940076  RH  015%=      5-min Rain = 0
KTAS 142330Z 24008KT 39/08 A2993 RMK A01 T03940079  RH  015%=      5-min Rain = 0
KTAS 142331Z 23007KT 39/07 A2993 RMK A01 T03940074  RH  014%=      5-min Rain = 0
KTAS 142332Z 23007KT 39/08 A2992 RMK A01 T03930079  RH  015%=      5-min Rain = 0
KTAS 142333Z 24006KT 39/08 A2992 RMK A01 T03930079  RH  015%=      5-min Rain = 0
KTAS 142334Z 23006KT 39/08 A2992 RMK A01 T03930077  RH  015%=      5-min Rain = 0
KTAS 142335Z 22006KT 39/08 A2992 RMK A01 T03940080  RH  015%=      5-min Rain = 0
KTAS 142336Z 23007KT 39/08 A2992 RMK A01 T03940079  RH  015%=      5-min Rain = 0
KTAS 142337Z 22006KT 40/08 A2992 RMK A01 T03950078  RH  015%=      5-min Rain = 0
KTAS 142338Z 21006KT 40/08 A2992 RMK A01 T03950076  RH  015%=      5-min Rain = 0
KTAS 142339Z 22006KT 39/08 A2992 RMK A01 T03940075  RH  014%=      5-min Rain = 0
KTAS 142340Z 22006KT 40/08 A2992 RMK A01 T03950080  RH  015%=      5-min Rain = 0
KTAS 142341Z 23007KT 40/08 A2992 RMK A01 T03950075  RH  014%=      5-min Rain = 0
KTAS 142342Z 22008KT 39/08 A2992 RMK A01 T03930077  RH  015%=      5-min Rain = 0
KTAS 142343Z 22007KT 39/08 A2992 RMK A01 T03920083  RH  016%=      5-min Rain = 0
KTAS 142344Z 22008KT 39/09 A2992 RMK A01 T03910086  RH  016%=      5-min Rain = 0
KTAS 142345Z 22011KT 39/08 A2992 RMK A01 T03900083  RH  016%=      5-min Rain = 0
KTAS 142346Z 22011KT 39/09 A2992 RMK A01 T03890087  RH  016%=      5-min Rain = 0
KTAS 142347Z 21010KT 39/09 A2992 RMK A01 T03880090  RH  017%=      5-min Rain = 0
KTAS 142348Z 21011KT 39/09 A2993 RMK A01 T03880089  RH  017%=      5-min Rain = 0
KTAS 142349Z 21011KT 39/09 A2992 RMK A01 T03870086  RH  016%=      5-min Rain = 0
KTAS 142350Z 21010KT 39/08 A2993 RMK A01 T03870083  RH  016%=      5-min Rain = 0
KTAS 142351Z 21010KT 39/08 A2993 RMK A01 T03870082  RH  016%=      5-min Rain = 0
KTAS 142352Z 21010KT 39/08 A2993 RMK A01 T03880081  RH  016%=      5-min Rain = 0
KTAS 142353Z 20010KT 39/08 A2993 RMK A01 T03870079  RH  015%=      5-min Rain = 0
KTAS 142354Z 21009KT 39/08 A2993 RMK A01 T03870078  RH  015%=      5-min Rain = 0
KTAS 142355Z 22007KT 39/08 A2993 RMK A01 T03890083  RH  016%=      5-min Rain = 0
KTAS 142356Z 22007KT 39/08 A2993 RMK A01 T03890084  RH  016%=      5-min Rain = 0
KTAS 142357Z 23006KT 39/09 A2993 RMK A01 T03880086  RH  016%=      5-min Rain = 0
KTAS 142358Z 23008KT 39/08 A2993 RMK A01 T03880084  RH  016%=      5-min Rain = 0
KTAS 142359Z 23008KT 39/08 A2993 RMK A01 T03850083  RH  016%=      5-min Rain = 0
KTAS 150000Z 23007KT 38/09 A2993 RMK A01 T03840089  RH  017%=      5-min Rain = 0
KTAS 150001Z 23006KT 38/10 A2993 RMK A01 T03840095  RH  017%=      5-min Rain = 0
KTAS 150002Z 22007KT 38/10 A2993 RMK A01 T03840095  RH  018%=      5-min Rain = 0
KTAS 150003Z 22009KT 38/09 A2993 RMK A01 T03830093  RH  017%=      5-min Rain = 0
KTAS 150004Z 22009KT 38/09 A2993 RMK A01 T03830089  RH  017%=      5-min Rain = 0
KTAS 150005Z 22009KT 38/09 A2993 RMK A01 T03810091  RH  017%=      5-min Rain = 0
KTAS 150006Z 23008KT 38/09 A2993 RMK A01 T03810090  RH  017%=      5-min Rain = 0
KTAS 150007Z 23008KT 38/09 A2993 RMK A01 T03820089  RH  017%=      5-min Rain = 0
KTAS 150008Z 23007KT 38/09 A2993 RMK A01 T03820086  RH  017%=      5-min Rain = 0
KTAS 150009Z 24008KT 38/08 A2993 RMK A01 T03830083  RH  016%=      5-min Rain = 0
KTAS 150010Z 24007KT 38/08 A2993 RMK A01 T03830079  RH  016%=      5-min Rain = 0
KTAS 150011Z 23006KT 38/08 A2993 RMK A01 T03840079  RH  016%=      5-min Rain = 0
KTAS 150012Z 23008KT 38/08 A2993 RMK A01 T03840082  RH  016%=      5-min Rain = 0
KTAS 150013Z 22008KT 38/09 A2993 RMK A01 T03830086  RH  017%=      5-min Rain = 0
KTAS 150014Z 22008KT 38/09 A2993 RMK A01 T03820087  RH  017%=      5-min Rain = 0
KTAS 150015Z 22007KT 38/09 A2994 RMK A01 T03820089  RH  017%=      5-min Rain = 0
KTAS 150016Z 21005KT 38/09 A2994 RMK A01 T03820092  RH  017%=      5-min Rain = 0
KTAS 150017Z 21008KT 38/09 A2993 RMK A01 T03820087  RH  017%=      5-min Rain = 0
KTAS 150018Z 21008KT 38/08 A2994 RMK A01 T03810076  RH  016%=      5-min Rain = 0
KTAS 150019Z 22008KT 38/08 A2994 RMK A01 T03820078  RH  016%=      5-min Rain = 0
KTAS 150020Z 22008KT 38/08 A2994 RMK A01 T03820078  RH  016%=      5-min Rain = 0
KTAS 150021Z 22007KT 38/08 A2994 RMK A01 T03820080  RH  016%=      5-min Rain = 0
KTAS 150022Z 23008KT 38/08 A2994 RMK A01 T03810083  RH  016%=      5-min Rain = 0
KTAS 150023Z 23007KT 38/09 A2994 RMK A01 T03810087  RH  017%=      5-min Rain = 0
KTAS 150024Z 24007KT 38/09 A2994 RMK A01 T03800087  RH  017%=      5-min Rain = 0
KTAS 150025Z 22006KT 38/09 A2994 RMK A01 T03800094  RH  018%=      5-min Rain = 0
KTAS 150026Z 23006KT 38/10 A2994 RMK A01 T03790097  RH  018%=      5-min Rain = 0
KTAS 150027Z 22007KT 38/09 A2994 RMK A01 T03780093  RH  018%=      5-min Rain = 0
KTAS 150028Z 23008KT 38/08 A2994 RMK A01 T03790084  RH  017%=      5-min Rain = 0
KTAS 150029Z 22006KT 38/08 A2994 RMK A01 T03800084  RH  017%=      5-min Rain = 0
KTAS 150030Z 22007KT 38/09 A2994 RMK A01 T03790091  RH  018%=      5-min Rain = 0
KTAS 150031Z 23007KT 38/09 A2994 RMK A01 T03780093  RH  018%=      5-min Rain = 0
KTAS 150032Z 22006KT 38/09 A2994 RMK A01 T03790089  RH  017%=      5-min Rain = 0
KTAS 150033Z 22006KT 38/09 A2994 RMK A01 T03790091  RH  018%=      5-min Rain = 0
KTAS 150034Z 22006KT 38/09 A2994 RMK A01 T03790092  RH  018%=      5-min Rain = 0
KTAS 150035Z 22006KT 38/09 A2994 RMK A01 T03790092  RH  018%=      5-min Rain = 0
KTAS 150036Z 22006KT 38/09 A2994 RMK A01 T03780093  RH  018%=      5-min Rain = 0
KTAS 150037Z 22005KT 38/09 A2994 RMK A01 T03770094  RH  018%=      5-min Rain = 0
KTAS 150038Z 22005KT 38/09 A2994 RMK A01 T03770093  RH  018%=      5-min Rain = 0
KTAS 150039Z 22005KT 38/09 A2995 RMK A01 T03770092  RH  018%=      5-min Rain = 0
KTAS 150040Z 22005KT 38/09 A2995 RMK A01 T03770093  RH  018%=      5-min Rain = 0
KTAS 150041Z 22005KT 38/09 A2995 RMK A01 T03780093  RH  018%=      5-min Rain = 0
KTAS 150042Z 22006KT 38/09 A2995 RMK A01 T03770094  RH  018%=      5-min Rain = 0
KTAS 150043Z 21006KT 38/10 A2995 RMK A01 T03760095  RH  018%=      5-min Rain = 0
KTAS 150044Z 21005KT 38/10 A2995 RMK A01 T03760095  RH  018%=      5-min Rain = 0
KTAS 150045Z 21004KT 38/09 A2995 RMK A01 T03760093  RH  018%=      5-min Rain = 0
KTAS 150046Z 21005KT 38/09 A2995 RMK A01 T03760092  RH  018%=      5-min Rain = 0
KTAS 150047Z 21005KT 38/09 A2995 RMK A01 T03770085  RH  017%=      5-min Rain = 0
KTAS 150048Z 21004KT 38/09 A2995 RMK A01 T03770085  RH  017%=      5-min Rain = 0
KTAS 150049Z 20005KT 38/09 A2995 RMK A01 T03780087  RH  017%=      5-min Rain = 0
KTAS 150050Z 21005KT 38/09 A2995 RMK A01 T03780086  RH  017%=      5-min Rain = 0
KTAS 150051Z 20003KT 38/09 A2995 RMK A01 T03770088  RH  017%=      5-min Rain = 0
KTAS 150052Z 18002KT 38/09 A2995 RMK A01 T03780087  RH  017%=      5-min Rain = 0
KTAS 150053Z 16001KT 38/09 A2995 RMK A01 T03780087  RH  017%=      5-min Rain = 0
KTAS 150054Z 05005KT 38/09 A2996 RMK A01 T03780088  RH  017%=      5-min Rain = 0
KTAS 150055Z 05008KT 37/10 A2996 RMK A01 T03740098  RH  019%=      5-min Rain = 0
KTAS 150056Z 05009KT 36/11 A2996 RMK A01 T03640109  RH  021%=      5-min Rain = 0
KTAS 150057Z 05012KT 36/11 A2996 RMK A01 T03550110  RH  023%=      5-min Rain = 0
KTAS 150058Z 05011KT 35/11 A2996 RMK A01 T03480112  RH  024%=      5-min Rain = 0
KTAS 150059Z 05010KT 34/11 A2996 RMK A01 T03440113  RH  025%=      5-min Rain = 0
KTAS 150100Z 05010KT 34/11 A2996 RMK A01 T03410113  RH  025%=      5-min Rain = 0
KTAS 150101Z 05011KT 34/11 A2996 RMK A01 T03390114  RH  025%=      5-min Rain = 0
KTAS 150102Z 05012KT 34/11 A2996 RMK A01 T03370114  RH  026%=      5-min Rain = 0
KTAS 150103Z 05012KT 34/11 A2996 RMK A01 T03360114  RH  026%=      5-min Rain = 0
KTAS 150104Z 05011KT 34/12 A2996 RMK A01 T03350116  RH  026%=      5-min Rain = 0
KTAS 150105Z 06011KT 33/12 A2996 RMK A01 T03330117  RH  027%=      5-min Rain = 0
KTAS 150106Z 05012KT 33/12 A2996 RMK A01 T03330117  RH  027%=      5-min Rain = 0
KTAS 150107Z 05013KT 33/12 A2996 RMK A01 T03310116  RH  027%=      5-min Rain = 0
KTAS 150108Z 05014KT 33/12 A2996 RMK A01 T03300116  RH  027%=      5-min Rain = 0
KTAS 150109Z 05013KT 33/12 A2996 RMK A01 T03290116  RH  027%=      5-min Rain = 0
KTAS 150110Z 06012KT 33/12 A2997 RMK A01 T03280117  RH  028%=      5-min Rain = 0
KTAS 150111Z 06013KT 33/12 A2997 RMK A01 T03260117  RH  028%=      5-min Rain = 0
KTAS 150112Z 05011KT 33/12 A2997 RMK A01 T03250117  RH  028%=      5-min Rain = 0
KTAS 150113Z 05011KT 32/12 A2997 RMK A01 T03240118  RH  028%=      5-min Rain = 0
KTAS 150114Z 05012KT 32/12 A2997 RMK A01 T03220118  RH  029%=      5-min Rain = 0
KTAS 150115Z 05011KT 32/12 A2997 RMK A01 T03210118  RH  029%=      5-min Rain = 0
KTAS 150116Z 05013KT 32/12 A2997 RMK A01 T03200118  RH  029%=      5-min Rain = 0
KTAS 150117Z 06013KT 32/12 A2997 RMK A01 T03200117  RH  029%=      5-min Rain = 0
KTAS 150118Z 05010G15KT 32/12 A2997 RMK A01 T03200118  RH  029%=      5-min Rain = 0
KTAS 150119Z 05012KT 32/12 A2997 RMK A01 T03190118  RH  029%=      5-min Rain = 0
KTAS 150120Z 05012KT 32/12 A2997 RMK A01 T03180118  RH  029%=      5-min Rain = 0
KTAS 150121Z 05011KT 32/12 A2997 RMK A01 T03180118  RH  029%=      5-min Rain = 0
KTAS 150122Z 05011KT 32/12 A2998 RMK A01 T03170118  RH  030%=      5-min Rain = 0
KTAS 150123Z 05012KT 32/12 A2998 RMK A01 T03160118  RH  030%=      5-min Rain = 0
KTAS 150124Z 05011KT 32/12 A2998 RMK A01 T03160119  RH  030%=      5-min Rain = 0
KTAS 150125Z 05011KT 32/12 A2998 RMK A01 T03150120  RH  030%=      5-min Rain = 0
KTAS 150126Z 05011KT 31/12 A2998 RMK A01 T03140120  RH  031%=      5-min Rain = 0
KTAS 150127Z 05011KT 31/12 A2998 RMK A01 T03130120  RH  031%=      5-min Rain = 0
KTAS 150128Z 06010KT 31/12 A2998 RMK A01 T03130120  RH  031%=      5-min Rain = 0
KTAS 150129Z 06011KT 31/12 A2998 RMK A01 T03130120  RH  031%=      5-min Rain = 0
KTAS 150130Z 06012KT 31/12 A2998 RMK A01 T03120120  RH  031%=      5-min Rain = 0
KTAS 150131Z 06011KT 31/12 A2998 RMK A01 T03130120  RH  031%=      5-min Rain = 0
KTAS 150132Z 06012KT 31/12 A2998 RMK A01 T03120120  RH  031%=      5-min Rain = 0
KTAS 150133Z 06010KT 31/12 A2998 RMK A01 T03120120  RH  031%=      5-min Rain = 0
KTAS 150134Z 06010KT 31/12 A2998 RMK A01 T03110120  RH  031%=      5-min Rain = 0
KTAS 150135Z 06009KT 31/12 A2998 RMK A01 T03100120  RH  031%=      5-min Rain = 0
KTAS 150136Z 06010KT 31/12 A2998 RMK A01 T03100121  RH  031%=      5-min Rain = 0
KTAS 150137Z 06009KT 31/12 A2998 RMK A01 T03100121  RH  031%=      5-min Rain = 0
KTAS 150138Z 06011KT 31/12 A2998 RMK A01 T03090121  RH  032%=      5-min Rain = 0
KTAS 150139Z 06010KT 31/12 A2998 RMK A01 T03090122  RH  032%=      5-min Rain = 0
KTAS 150140Z 06010KT 31/12 A2998 RMK A01 T03080122  RH  032%=      5-min Rain = 0
KTAS 150141Z 06011KT 31/12 A2998 RMK A01 T03080122  RH  032%=      5-min Rain = 0
KTAS 150142Z 06010KT 31/12 A2998 RMK A01 T03080122  RH  032%=      5-min Rain = 0
KTAS 150143Z 05008KT 31/12 A2998 RMK A01 T03070122  RH  032%=      5-min Rain = 0
KTAS 150144Z 05009KT 31/12 A2998 RMK A01 T03060122  RH  032%=      5-min Rain = 0
KTAS 150145Z 05009KT 31/12 A2999 RMK A01 T03050123  RH  033%=      5-min Rain = 0
KTAS 150146Z 05010KT 31/12 A2999 RMK A01 T03050123  RH  033%=      5-min Rain = 0
KTAS 150147Z 04010KT 30/12 A2999 RMK A01 T03040124  RH  033%=      5-min Rain = 0
KTAS 150148Z 04010KT 30/13 A2999 RMK A01 T03020125  RH  034%=      5-min Rain = 0
KTAS 150149Z 04012KT 30/13 A2999 RMK A01 T03020125  RH  034%=      5-min Rain = 0
KTAS 150150Z 04011KT 30/13 A2999 RMK A01 T03010126  RH  034%=      5-min Rain = 0
KTAS 150151Z 04011KT 30/13 A2999 RMK A01 T03010125  RH  034%=      5-min Rain = 0
KTAS 150152Z 04010KT 30/13 A2999 RMK A01 T03010125  RH  034%=      5-min Rain = 0
KTAS 150153Z 04010KT 30/13 A2999 RMK A01 T03010125  RH  034%=      5-min Rain = 0
KTAS 150154Z 05011KT 30/13 A2999 RMK A01 T03010125  RH  034%=      5-min Rain = 0
KTAS 150155Z 05011KT 30/13 A2999 RMK A01 T03010125  RH  034%=      5-min Rain = 0
KTAS 150156Z 05010KT 30/13 A2999 RMK A01 T03000125  RH  034%=      5-min Rain = 0
KTAS 150157Z 05011KT 30/13 A2999 RMK A01 T03000125  RH  034%=      5-min Rain = 0
KTAS 150158Z 05012KT 30/13 A2999 RMK A01 T03000126  RH  034%=      5-min Rain = 0
KTAS 150159Z 05010KT 30/13 A2999 RMK A01 T03010126  RH  034%=      5-min Rain = 0
KTAS 150200Z 06011KT 30/13 A2999 RMK A01 T03010126  RH  034%=      5-min Rain = 0
KTAS 150201Z 06012KT 30/13 A2999 RMK A01 T03010126  RH  034%=      5-min Rain = 0
KTAS 150202Z 06011KT 30/13 A2999 RMK A01 T03020126  RH  034%=      5-min Rain = 0
KTAS 150203Z 06011KT 30/13 A2999 RMK A01 T03020126  RH  034%=      5-min Rain = 0
KTAS 150204Z 06010KT 30/13 A2999 RMK A01 T03020126  RH  034%=      5-min Rain = 0
KTAS 150205Z 06010KT 30/13 A2999 RMK A01 T03010126  RH  034%=      5-min Rain = 0
KTAS 150206Z 06009KT 30/13 A2999 RMK A01 T03000126  RH  034%=      5-min Rain = 0
KTAS 150207Z 06008KT 30/13 A30 RMK A01 T02980126  RH  035%=      5-min Rain = 0
KTAS 150208Z 06009KT 30/13 A30 RMK A01 T02980127  RH  035%=      5-min Rain = 0
KTAS 150209Z 06009KT 30/13 A30 RMK A01 T02970126  RH  035%=      5-min Rain = 0
KTAS 150210Z 06010KT 30/13 A30 RMK A01 T02970127  RH  035%=      5-min Rain = 0
KTAS 150211Z 06010KT 30/13 A30 RMK A01 T02980127  RH  035%=      5-min Rain = 0
KTAS 150212Z 06010KT 30/13 A30 RMK A01 T02980127  RH  035%=      5-min Rain = 0
KTAS 150213Z 06010KT 30/13 A30 RMK A01 T02980127  RH  035%=      5-min Rain = 0
KTAS 150214Z 06011KT 30/13 A30 RMK A01 T02980127  RH  035%=      5-min Rain = 0
KTAS 150215Z 06011KT 30/13 A30 RMK A01 T02980128  RH  035%=      5-min Rain = 0
KTAS 150216Z 06011KT 30/13 A30 RMK A01 T02990128  RH  035%=      5-min Rain = 0
KTAS 150217Z 06010KT 30/13 A30 RMK A01 T02990128  RH  035%=      5-min Rain = 0
KTAS 150218Z 06011KT 30/13 A30 RMK A01 T02980128  RH  035%=      5-min Rain = 0
KTAS 150219Z 06013KT 30/13 A30 RMK A01 T02980128  RH  035%=      5-min Rain = 0
KTAS 150220Z 06011KT 30/13 A30 RMK A01 T02990128  RH  035%=      5-min Rain = 0
KTAS 150221Z 06011KT 30/13 A30 RMK A01 T02990128  RH  035%=      5-min Rain = 0
KTAS 150222Z 06011KT 30/13 A30 RMK A01 T02990129  RH  035%=      5-min Rain = 0
KTAS 150223Z 06011KT 30/13 A30 RMK A01 T02990129  RH  035%=      5-min Rain = 0
KTAS 150224Z 06010KT 30/13 A30 RMK A01 T03000129  RH  035%=      5-min Rain = 0
KTAS 150225Z 06011KT 30/13 A30 RMK A01 T03000129  RH  035%=      5-min Rain = 0
KTAS 150226Z 06011KT 30/13 A30 RMK A01 T02990128  RH  035%=      5-min Rain = 0
KTAS 150227Z 07010KT 30/13 A30 RMK A01 T02990129  RH  035%=      5-min Rain = 0
KTAS 150228Z 07009KT 30/13 A30 RMK A01 T02980128  RH  035%=      5-min Rain = 0
KTAS 150229Z 07012KT 30/13 A30 RMK A01 T02980128  RH  035%=      5-min Rain = 0
KTAS 150230Z 06013KT 30/13 A30 RMK A01 T02990127  RH  035%=      5-min Rain = 0
KTAS 150231Z 06012KT 30/13 A30 RMK A01 T03000127  RH  035%=      5-min Rain = 0
KTAS 150232Z 07013KT 30/13 A30 RMK A01 T03000127  RH  035%=      5-min Rain = 0
KTAS 150233Z 07014KT 30/13 A30 RMK A01 T03000126  RH  035%=      5-min Rain = 0
KTAS 150234Z 06015KT 30/13 A30 RMK A01 T03000126  RH  034%=      5-min Rain = 0
KTAS 150235Z 06016KT 30/13 A30 RMK A01 T03000126  RH  034%=      5-min Rain = 0
KTAS 150236Z 06017KT 30/13 A30 RMK A01 T03010125  RH  034%=      5-min Rain = 0
KTAS 150237Z 06014G19KT 30/13 A30 RMK A01 T03010125  RH  034%=      5-min Rain = 0
KTAS 150238Z 06013G19KT 30/13 A30 RMK A01 T03000125  RH  034%=      5-min Rain = 0
KTAS 150239Z 06014KT 30/13 A30 RMK A01 T02990125  RH  034%=      5-min Rain = 0
KTAS 150240Z 06018KT 30/12 A30 RMK A01 T02990124  RH  034%=      5-min Rain = 0
KTAS 150241Z 06016KT 30/12 A30 RMK A01 T03000123  RH  034%=      5-min Rain = 0
KTAS 150242Z 06017G22KT 30/12 A30 RMK A01 T03000123  RH  034%=      5-min Rain = 0
KTAS 150243Z 06017G22KT 30/12 A30 RMK A01 T03010122  RH  033%=      5-min Rain = 0
KTAS 150244Z 06018KT 30/12 A30 RMK A01 T03000122  RH  033%=      5-min Rain = 0
KTAS 150245Z 06017G22KT 30/12 A30 RMK A01 T03000122  RH  033%=      5-min Rain = 0
KTAS 150246Z 06014G19KT 30/12 A3001 RMK A01 T03000122  RH  033%=      5-min Rain = 0
KTAS 150247Z 06013KT 30/12 A3001 RMK A01 T02990122  RH  034%=      5-min Rain = 0
KTAS 150248Z 06016KT 30/12 A3001 RMK A01 T02990121  RH  033%=      5-min Rain = 0
KTAS 150249Z 06014KT 30/12 A3001 RMK A01 T03000121  RH  033%=      5-min Rain = 0
KTAS 150250Z 06014KT 30/12 A3001 RMK A01 T02990121  RH  033%=      5-min Rain = 0
KTAS 150251Z 06015KT 30/12 A3001 RMK A01 T02990121  RH  033%=      5-min Rain = 0
KTAS 150252Z 06013KT 30/12 A3001 RMK A01 T02990121  RH  033%=      5-min Rain = 0
KTAS 150253Z 06016G21KT 30/12 A3001 RMK A01 T02990121  RH  033%=      5-min Rain = 0
KTAS 150254Z 06013KT 30/12 A3001 RMK A01 T02990121  RH  033%=      5-min Rain = 0
KTAS 150255Z 06014KT 30/12 A3001 RMK A01 T02980121  RH  034%=      5-min Rain = 0
KTAS 150256Z 06014KT 30/12 A3001 RMK A01 T02980121  RH  034%=      5-min Rain = 0
KTAS 150257Z 06014KT 30/12 A3001 RMK A01 T02980122  RH  034%=      5-min Rain = 0
KTAS 150258Z 06015KT 30/12 A3001 RMK A01 T02970122  RH  034%=      5-min Rain = 0
KTAS 150259Z 06016KT 30/12 A3001 RMK A01 T02980122  RH  034%=      5-min Rain = 0
KTAS 150300Z 06014G20KT 30/12 A3001 RMK A01 T02980122  RH  034%=      5-min Rain = 0
KTAS 150301Z 06018KT 30/12 A3001 RMK A01 T02970121  RH  034%=      5-min Rain = 0
KTAS 150302Z 06017G22KT 30/12 A3001 RMK A01 T02980121  RH  034%=      5-min Rain = 0
KTAS 150303Z 07016G21KT 30/12 A3001 RMK A01 T02980120  RH  033%=      5-min Rain = 0
KTAS 150304Z 06016G21KT 30/12 A3001 RMK A01 T02980120  RH  034%=      5-min Rain = 0
KTAS 150305Z 06017KT 30/12 A3001 RMK A01 T02970119  RH  033%=      5-min Rain = 0
KTAS 150306Z 07015KT 30/12 A3001 RMK A01 T02970119  RH  033%=      5-min Rain = 0
KTAS 150307Z 06016KT 30/12 A3001 RMK A01 T02960118  RH  033%=      5-min Rain = 0
KTAS 150308Z 06017KT 30/12 A3001 RMK A01 T02950118  RH  033%=      5-min Rain = 0
KTAS 150309Z 06019G24KT 30/12 A3001 RMK A01 T02950117  RH  033%=      5-min Rain = 0
KTAS 150310Z 07017KT 30/12 A3001 RMK A01 T02950117  RH  033%=      5-min Rain = 0
KTAS 150311Z 06020KT 30/12 A3002 RMK A01 T02950117  RH  033%=      5-min Rain = 0
KTAS 150312Z 06017KT 30/12 A3002 RMK A01 T02950117  RH  033%=      5-min Rain = 0
KTAS 150313Z 06016KT 29/12 A3002 RMK A01 T02940116  RH  033%=      5-min Rain = 0
KTAS 150314Z 06014KT 29/12 A3002 RMK A01 T02930116  RH  033%=      5-min Rain = 0
KTAS 150315Z 06016KT 29/12 A3002 RMK A01 T02930116  RH  033%=      5-min Rain = 0
KTAS 150316Z 06014KT 29/12 A3002 RMK A01 T02930116  RH  033%=      5-min Rain = 0
KTAS 150317Z 06014KT 29/12 A3002 RMK A01 T02920116  RH  034%=      5-min Rain = 0
KTAS 150318Z 06015KT 29/12 A3002 RMK A01 T02910115  RH  034%=      5-min Rain = 0
KTAS 150319Z 06016G21KT 29/12 A3002 RMK A01 T02920115  RH  034%=      5-min Rain = 0
KTAS 150320Z 06012KT 29/12 A3002 RMK A01 T02920115  RH  033%=      5-min Rain = 0
KTAS 150321Z 06014KT 29/12 A3002 RMK A01 T02910115  RH  034%=      5-min Rain = 0
KTAS 150322Z 05014KT 29/11 A3002 RMK A01 T02910114  RH  034%=      5-min Rain = 0
KTAS 150323Z 06016KT 29/11 A3002 RMK A01 T02910114  RH  034%=      5-min Rain = 0
KTAS 150324Z 06013KT 29/11 A3002 RMK A01 T02910114  RH  033%=      5-min Rain = 0
KTAS 150325Z 06013G18KT 29/11 A3003 RMK A01 T02910114  RH  033%=      5-min Rain = 0
KTAS 150326Z 05013KT 29/11 A3003 RMK A01 T02910114  RH  033%=      5-min Rain = 0
KTAS 150327Z 06012G17KT 29/11 A3003 RMK A01 T02910114  RH  034%=      5-min Rain = 0
KTAS 150328Z 06012KT 29/11 A3003 RMK A01 T02900114  RH  034%=      5-min Rain = 0
KTAS 150329Z 06013KT 29/11 A3003 RMK A01 T02900114  RH  034%=      5-min Rain = 0
KTAS 150330Z 05013KT 29/11 A3003 RMK A01 T02900114  RH  033%=      5-min Rain = 0
KTAS 150331Z 05013KT 29/11 A3003 RMK A01 T02910114  RH  033%=      5-min Rain = 0
KTAS 150332Z 05012KT 29/11 A3003 RMK A01 T02910114  RH  033%=      5-min Rain = 0
KTAS 150333Z 05012KT 29/11 A3003 RMK A01 T02900113  RH  033%=      5-min Rain = 0
KTAS 150334Z 04010KT 29/11 A3003 RMK A01 T02900114  RH  034%=      5-min Rain = 0
KTAS 150335Z 04009KT 29/11 A3003 RMK A01 T02890114  RH  034%=      5-min Rain = 0
KTAS 150336Z 04010KT 29/11 A3003 RMK A01 T02880114  RH  034%=      5-min Rain = 0
KTAS 150337Z 04010KT 29/11 A3004 RMK A01 T02880114  RH  034%=      5-min Rain = 0
KTAS 150338Z 03010KT 29/11 A3004 RMK A01 T02880114  RH  034%=      5-min Rain = 0
KTAS 150339Z 03011KT 29/11 A3004 RMK A01 T02870114  RH  034%=      5-min Rain = 0
KTAS 150340Z 03009KT 29/11 A3004 RMK A01 T02870114  RH  034%=      5-min Rain = 0
KTAS 150341Z 02010KT 29/11 A3004 RMK A01 T02870113  RH  034%=      5-min Rain = 0
KTAS 150342Z 02009KT 29/11 A3004 RMK A01 T02870113  RH  034%=      5-min Rain = 0
KTAS 150343Z 02012KT 29/11 A3004 RMK A01 T02870113  RH  034%=      5-min Rain = 0
KTAS 150344Z 02010KT 29/11 A3004 RMK A01 T02870113  RH  034%=      5-min Rain = 0
KTAS 150345Z 02011KT 29/11 A3004 RMK A01 T02870112  RH  034%=      5-min Rain = 0
KTAS 150346Z 02011KT 29/11 A3004 RMK A01 T02870112  RH  034%=      5-min Rain = 0
KTAS 150347Z 02012KT 29/11 A3004 RMK A01 T02870112  RH  034%=      5-min Rain = 0
KTAS 150348Z 02012KT 29/11 A3004 RMK A01 T02880111  RH  033%=      5-min Rain = 0
KTAS 150349Z 02012KT 29/11 A3004 RMK A01 T02880111  RH  033%=      5-min Rain = 0
KTAS 150350Z 02011KT 29/11 A3004 RMK A01 T02890110  RH  033%=      5-min Rain = 0
KTAS 150351Z 02010KT 29/11 A3004 RMK A01 T02890110  RH  033%=      5-min Rain = 0
KTAS 150352Z 02011KT 29/11 A3004 RMK A01 T02890110  RH  033%=      5-min Rain = 0
KTAS 150353Z 02010KT 29/11 A3004 RMK A01 T02890110  RH  033%=      5-min Rain = 0
KTAS 150354Z 02009KT 29/11 A3004 RMK A01 T02890110  RH  033%=      5-min Rain = 0
KTAS 150355Z 03008KT 29/11 A3004 RMK A01 T02890110  RH  033%=      5-min Rain = 0
KTAS 150356Z 03008KT 29/11 A3004 RMK A01 T02880110  RH  033%=      5-min Rain = 0
KTAS 150357Z 03009KT 29/11 A3004 RMK A01 T02880110  RH  033%=      5-min Rain = 0
KTAS 150358Z 04009KT 29/11 A3004 RMK A01 T02870109  RH  033%=      5-min Rain = 0
KTAS 150359Z 03009KT 29/11 A3004 RMK A01 T02870109  RH  033%=      5-min Rain = 0
KTAS 150400Z 03008KT 29/11 A3004 RMK A01 T02870109  RH  033%=      5-min Rain = 0
KTAS 150401Z 03008KT 29/11 A3004 RMK A01 T02880109  RH  033%=      5-min Rain = 0
KTAS 150402Z 03009KT 29/11 A3004 RMK A01 T02870109  RH  033%=      5-min Rain = 0
KTAS 150403Z 03008KT 29/11 A3004 RMK A01 T02880109  RH  033%=      5-min Rain = 0
KTAS 150404Z 04007KT 29/11 A3004 RMK A01 T02880109  RH  033%=      5-min Rain = 0
KTAS 150405Z 03008KT 29/11 A3004 RMK A01 T02870109  RH  033%=      5-min Rain = 0
KTAS 150406Z 03007KT 29/11 A3004 RMK A01 T02870109  RH  033%=      5-min Rain = 0
KTAS 150407Z 03007KT 29/11 A3004 RMK A01 T02850109  RH  033%=      5-min Rain = 0
KTAS 150408Z 03007KT 29/11 A3004 RMK A01 T02850108  RH  033%=      5-min Rain = 0
KTAS 150409Z 02007KT 29/11 A3004 RMK A01 T02850109  RH  034%=      5-min Rain = 0
KTAS 150410Z 01007KT 28/11 A3004 RMK A01 T02840109  RH  034%=      5-min Rain = 0
KTAS 150411Z 02006KT 28/11 A3004 RMK A01 T02820109  RH  034%=      5-min Rain = 0
KTAS 150412Z 01006KT 28/11 A3004 RMK A01 T02800109  RH  035%=      5-min Rain = 0
KTAS 150413Z 01007KT 28/11 A3004 RMK A01 T02790110  RH  035%=      5-min Rain = 0
KTAS 150414Z 01007KT 28/11 A3004 RMK A01 T02770110  RH  035%=      5-min Rain = 0
KTAS 150415Z 01007KT 28/11 A3004 RMK A01 T02770109  RH  035%=      5-min Rain = 0
KTAS 150416Z 01008KT 28/11 A3004 RMK A01 T02770110  RH  035%=      5-min Rain = 0
KTAS 150417Z 01008KT 28/11 A3004 RMK A01 T02770110  RH  035%=      5-min Rain = 0
KTAS 150418Z 01007KT 28/11 A3004 RMK A01 T02770110  RH  035%=      5-min Rain = 0
KTAS 150419Z 02007KT 28/11 A3004 RMK A01 T02770109  RH  035%=      5-min Rain = 0
KTAS 150420Z 02007KT 28/11 A3004 RMK A01 T02760109  RH  035%=      5-min Rain = 0
KTAS 150421Z 02006KT 28/11 A3004 RMK A01 T02770109  RH  035%=      5-min Rain = 0
KTAS 150422Z 02006KT 28/11 A3004 RMK A01 T02770109  RH  035%=      5-min Rain = 0
KTAS 150423Z 02007KT 28/11 A3004 RMK A01 T02760109  RH  035%=      5-min Rain = 0
KTAS 150424Z 01007KT 28/11 A3004 RMK A01 T02760109  RH  035%=      5-min Rain = 0
KTAS 150425Z 00007KT 28/11 A3004 RMK A01 T02760109  RH  035%=      5-min Rain = 0
KTAS 150426Z 35007KT 28/11 A3004 RMK A01 T02750109  RH  035%=      5-min Rain = 0
KTAS 150427Z 34007KT 27/11 A3004 RMK A01 T02740109  RH  036%=      5-min Rain = 0
KTAS 150428Z 35007KT 27/11 A3004 RMK A01 T02720110  RH  036%=      5-min Rain = 0
KTAS 150429Z 35007KT 27/11 A3004 RMK A01 T02720111  RH  037%=      5-min Rain = 0
KTAS 150430Z 34006KT 27/11 A3004 RMK A01 T02710113  RH  037%=      5-min Rain = 0
KTAS 150431Z 34006KT 27/11 A3004 RMK A01 T02690114  RH  038%=      5-min Rain = 0
KTAS 150432Z 34006KT 27/12 A3004 RMK A01 T02680115  RH  038%=      5-min Rain = 0
KTAS 150433Z 34006KT 27/12 A3004 RMK A01 T02670116  RH  039%=      5-min Rain = 0
KTAS 150434Z 34005KT 27/12 A3004 RMK A01 T02660117  RH  039%=      5-min Rain = 0
KTAS 150435Z 34005KT 27/12 A3004 RMK A01 T02650117  RH  040%=      5-min Rain = 0
KTAS 150436Z 35005KT 26/12 A3004 RMK A01 T02640117  RH  040%=      5-min Rain = 0
KTAS 150437Z 35005KT 26/12 A3004 RMK A01 T02630117  RH  040%=      5-min Rain = 0
KTAS 150438Z 36005KT 26/12 A3004 RMK A01 T02630117  RH  040%=      5-min Rain = 0
KTAS 150439Z 36005KT 26/12 A3004 RMK A01 T02630117  RH  040%=      5-min Rain = 0
KTAS 150440Z 00005KT 26/12 A3004 RMK A01 T02630117  RH  040%=      5-min Rain = 0
KTAS 150441Z 36004KT 26/12 A3004 RMK A01 T02630117  RH  040%=      5-min Rain = 0
KTAS 150442Z 00004KT 26/12 A3003 RMK A01 T02630116  RH  040%=      5-min Rain = 0
KTAS 150443Z 36004KT 26/12 A3003 RMK A01 T02630117  RH  040%=      5-min Rain = 0
KTAS 150444Z 00004KT 26/12 A3003 RMK A01 T02630117  RH  040%=      5-min Rain = 0
KTAS 150445Z 01003KT 26/12 A3003 RMK A01 T02620117  RH  040%=      5-min Rain = 0
KTAS 150446Z 01002KT 26/12 A3003 RMK A01 T02620117  RH  040%=      5-min Rain = 0
KTAS 150447Z 02003KT 26/12 A3003 RMK A01 T02620117  RH  040%=      5-min Rain = 0
KTAS 150448Z 02002KT 26/12 A3003 RMK A01 T02620116  RH  040%=      5-min Rain = 0
KTAS 150449Z 02002KT 26/12 A3003 RMK A01 T02620116  RH  040%=      5-min Rain = 0
KTAS 150450Z 01002KT 26/12 A3003 RMK A01 T02620115  RH  040%=      5-min Rain = 0
KTAS 150451Z 01002KT 26/12 A3003 RMK A01 T02620115  RH  040%=      5-min Rain = 0
KTAS 150452Z 01001KT 26/12 A3003 RMK A01 T02620115  RH  040%=      5-min Rain = 0
KTAS 150453Z 02001KT 26/12 A3003 RMK A01 T02620115  RH  040%=      5-min Rain = 0
KTAS 150454Z 02001KT 26/11 A3003 RMK A01 T02620114  RH  040%=      5-min Rain = 0
KTAS 150455Z 02001KT 26/11 A3003 RMK A01 T02620114  RH  040%=      5-min Rain = 0
KTAS 150456Z 02001KT 26/11 A3003 RMK A01 T02620114  RH  040%=      5-min Rain = 0
KTAS 150457Z 02002KT 26/12 A3003 RMK A01 T02620115  RH  040%=      5-min Rain = 0
KTAS 150458Z 01001KT 26/11 A3003 RMK A01 T02620114  RH  040%=      5-min Rain = 0
KTAS 150459Z 35002KT 26/11 A3003 RMK A01 T02620114  RH  040%=      5-min Rain = 0

Page generated in 0.0702 seconds.